<?xml version="1.0" encoding="UTF-8" standalone="no" ?>
<gpx xmlns="http://www.topografix.com/GPX/1/1" xmlns:xsi="http://www.w3.org/2001/XMLSchema-instance" xsi:schemaLocation="http://www.topografix.com/GPX/1/1 http://www.topografix.com/GPX/1/1/gpx.xsd" version="1.1" creator="VisuGPX - https://www.visugpx.com">
  <metadata>
    <name>Rocca Tre Vescovi </name>
    <desc><![CDATA[Grange Argentera - Rocca Tre Vescovi ]]></desc>
  </metadata>
  <trk>
    <name><![CDATA[Rocc_3_Vescovi]]></name>
    <trkseg>
      <trkpt lat="44.39869" lon="6.92722">
        <ele>1761.272705</ele>
        <time>2008-04-13T06:43:55Z</time>
      </trkpt>
      <trkpt lat="44.39867" lon="6.92722">
        <ele>1761.753418</ele>
        <time>2008-04-13T06:44:04Z</time>
      </trkpt>
      <trkpt lat="44.39873" lon="6.92714">
        <ele>1761.753418</ele>
        <time>2008-04-13T06:44:16Z</time>
      </trkpt>
      <trkpt lat="44.3988" lon="6.92677">
        <ele>1762.233887</ele>
        <time>2008-04-13T06:44:41Z</time>
      </trkpt>
      <trkpt lat="44.39876" lon="6.92656">
        <ele>1762.7146</ele>
        <time>2008-04-13T06:45:01Z</time>
      </trkpt>
      <trkpt lat="44.39873" lon="6.92649">
        <ele>1761.753418</ele>
        <time>2008-04-13T06:45:14Z</time>
      </trkpt>
      <trkpt lat="44.39863" lon="6.92656">
        <ele>1784.344238</ele>
        <time>2008-04-13T06:45:53Z</time>
      </trkpt>
      <trkpt lat="44.39861" lon="6.92636">
        <ele>1779.056885</ele>
        <time>2008-04-13T06:46:18Z</time>
      </trkpt>
      <trkpt lat="44.39871" lon="6.92624">
        <ele>1775.692383</ele>
        <time>2008-04-13T06:46:36Z</time>
      </trkpt>
      <trkpt lat="44.39871" lon="6.92613">
        <ele>1774.250488</ele>
        <time>2008-04-13T06:46:43Z</time>
      </trkpt>
      <trkpt lat="44.3988" lon="6.92585">
        <ele>1767.040527</ele>
        <time>2008-04-13T06:47:02Z</time>
      </trkpt>
      <trkpt lat="44.3988" lon="6.92572">
        <ele>1764.637207</ele>
        <time>2008-04-13T06:47:12Z</time>
      </trkpt>
      <trkpt lat="44.39869" lon="6.92561">
        <ele>1762.7146</ele>
        <time>2008-04-13T06:47:26Z</time>
      </trkpt>
      <trkpt lat="44.39858" lon="6.92549">
        <ele>1757.908203</ele>
        <time>2008-04-13T06:47:43Z</time>
      </trkpt>
      <trkpt lat="44.39854" lon="6.92542">
        <ele>1762.233887</ele>
        <time>2008-04-13T06:48:03Z</time>
      </trkpt>
      <trkpt lat="44.39848" lon="6.92525">
        <ele>1759.350098</ele>
        <time>2008-04-13T06:48:18Z</time>
      </trkpt>
      <trkpt lat="44.3985" lon="6.92512">
        <ele>1760.311279</ele>
        <time>2008-04-13T06:48:34Z</time>
      </trkpt>
      <trkpt lat="44.3985" lon="6.92506">
        <ele>1760.791992</ele>
        <time>2008-04-13T06:48:41Z</time>
      </trkpt>
      <trkpt lat="44.39852" lon="6.92484">
        <ele>1764.156494</ele>
        <time>2008-04-13T06:48:59Z</time>
      </trkpt>
      <trkpt lat="44.3985" lon="6.92482">
        <ele>1764.637207</ele>
        <time>2008-04-13T06:49:01Z</time>
      </trkpt>
      <trkpt lat="44.39846" lon="6.92473">
        <ele>1764.156494</ele>
        <time>2008-04-13T06:49:11Z</time>
      </trkpt>
      <trkpt lat="44.39837" lon="6.92469">
        <ele>1764.156494</ele>
        <time>2008-04-13T06:49:25Z</time>
      </trkpt>
      <trkpt lat="44.39835" lon="6.92467">
        <ele>1765.598633</ele>
        <time>2008-04-13T06:49:46Z</time>
      </trkpt>
      <trkpt lat="44.39828" lon="6.92469">
        <ele>1765.11792</ele>
        <time>2008-04-13T06:50:07Z</time>
      </trkpt>
      <trkpt lat="44.39824" lon="6.92476">
        <ele>1766.079102</ele>
        <time>2008-04-13T06:50:25Z</time>
      </trkpt>
      <trkpt lat="44.39824" lon="6.92473">
        <ele>1762.7146</ele>
        <time>2008-04-13T06:51:09Z</time>
      </trkpt>
      <trkpt lat="44.3982" lon="6.92471">
        <ele>1763.195313</ele>
        <time>2008-04-13T06:53:50Z</time>
      </trkpt>
      <trkpt lat="44.39818" lon="6.92467">
        <ele>1762.7146</ele>
        <time>2008-04-13T06:54:04Z</time>
      </trkpt>
      <trkpt lat="44.3982" lon="6.92471">
        <ele>1765.598633</ele>
        <time>2008-04-13T06:54:57Z</time>
      </trkpt>
      <trkpt lat="44.39818" lon="6.92469">
        <ele>1768.482422</ele>
        <time>2008-04-13T06:55:18Z</time>
      </trkpt>
      <trkpt lat="44.39811" lon="6.92458">
        <ele>1767.520996</ele>
        <time>2008-04-13T06:55:35Z</time>
      </trkpt>
      <trkpt lat="44.39807" lon="6.9245">
        <ele>1767.040527</ele>
        <time>2008-04-13T06:55:50Z</time>
      </trkpt>
      <trkpt lat="44.39803" lon="6.92435">
        <ele>1766.079102</ele>
        <time>2008-04-13T06:56:07Z</time>
      </trkpt>
      <trkpt lat="44.39798" lon="6.9242">
        <ele>1766.559814</ele>
        <time>2008-04-13T06:56:24Z</time>
      </trkpt>
      <trkpt lat="44.39794" lon="6.92403">
        <ele>1767.520996</ele>
        <time>2008-04-13T06:56:43Z</time>
      </trkpt>
      <trkpt lat="44.39788" lon="6.92388">
        <ele>1768.963135</ele>
        <time>2008-04-13T06:57:00Z</time>
      </trkpt>
      <trkpt lat="44.39785" lon="6.92375">
        <ele>1769.924316</ele>
        <time>2008-04-13T06:57:14Z</time>
      </trkpt>
      <trkpt lat="44.39781" lon="6.92362">
        <ele>1770.405029</ele>
        <time>2008-04-13T06:57:29Z</time>
      </trkpt>
      <trkpt lat="44.39777" lon="6.92349">
        <ele>1772.327881</ele>
        <time>2008-04-13T06:57:45Z</time>
      </trkpt>
      <trkpt lat="44.39773" lon="6.92334">
        <ele>1772.327881</ele>
        <time>2008-04-13T06:58:01Z</time>
      </trkpt>
      <trkpt lat="44.39768" lon="6.92317">
        <ele>1774.250488</ele>
        <time>2008-04-13T06:58:19Z</time>
      </trkpt>
      <trkpt lat="44.39764" lon="6.923">
        <ele>1776.173096</ele>
        <time>2008-04-13T06:58:37Z</time>
      </trkpt>
      <trkpt lat="44.3976" lon="6.92282">
        <ele>1778.095703</ele>
        <time>2008-04-13T06:58:55Z</time>
      </trkpt>
      <trkpt lat="44.39758" lon="6.92265">
        <ele>1779.537598</ele>
        <time>2008-04-13T06:59:12Z</time>
      </trkpt>
      <trkpt lat="44.39753" lon="6.9225">
        <ele>1782.421631</ele>
        <time>2008-04-13T06:59:29Z</time>
      </trkpt>
      <trkpt lat="44.39751" lon="6.92233">
        <ele>1784.824951</ele>
        <time>2008-04-13T06:59:47Z</time>
      </trkpt>
      <trkpt lat="44.39749" lon="6.92216">
        <ele>1785.30542</ele>
        <time>2008-04-13T07:00:04Z</time>
      </trkpt>
      <trkpt lat="44.39749" lon="6.92197">
        <ele>1788.67041</ele>
        <time>2008-04-13T07:00:25Z</time>
      </trkpt>
      <trkpt lat="44.39747" lon="6.92182">
        <ele>1792.515625</ele>
        <time>2008-04-13T07:00:43Z</time>
      </trkpt>
      <trkpt lat="44.39745" lon="6.92164">
        <ele>1792.034912</ele>
        <time>2008-04-13T07:01:00Z</time>
      </trkpt>
      <trkpt lat="44.3974" lon="6.92152">
        <ele>1793.476807</ele>
        <time>2008-04-13T07:01:17Z</time>
      </trkpt>
      <trkpt lat="44.39736" lon="6.92143">
        <ele>1795.399414</ele>
        <time>2008-04-13T07:01:33Z</time>
      </trkpt>
      <trkpt lat="44.39732" lon="6.9213">
        <ele>1797.322021</ele>
        <time>2008-04-13T07:01:51Z</time>
      </trkpt>
      <trkpt lat="44.39721" lon="6.92115">
        <ele>1797.802734</ele>
        <time>2008-04-13T07:02:10Z</time>
      </trkpt>
      <trkpt lat="44.39719" lon="6.92111">
        <ele>1797.802734</ele>
        <time>2008-04-13T07:02:14Z</time>
      </trkpt>
      <trkpt lat="44.39708" lon="6.92094">
        <ele>1797.802734</ele>
        <time>2008-04-13T07:02:34Z</time>
      </trkpt>
      <trkpt lat="44.397" lon="6.92081">
        <ele>1797.802734</ele>
        <time>2008-04-13T07:02:54Z</time>
      </trkpt>
      <trkpt lat="44.39693" lon="6.9207">
        <ele>1797.802734</ele>
        <time>2008-04-13T07:03:10Z</time>
      </trkpt>
      <trkpt lat="44.39685" lon="6.92059">
        <ele>1797.802734</ele>
        <time>2008-04-13T07:03:28Z</time>
      </trkpt>
      <trkpt lat="44.39676" lon="6.92049">
        <ele>1797.802734</ele>
        <time>2008-04-13T07:03:47Z</time>
      </trkpt>
      <trkpt lat="44.39667" lon="6.9204">
        <ele>1797.802734</ele>
        <time>2008-04-13T07:04:04Z</time>
      </trkpt>
      <trkpt lat="44.39657" lon="6.92031">
        <ele>1797.802734</ele>
        <time>2008-04-13T07:04:21Z</time>
      </trkpt>
      <trkpt lat="44.39646" lon="6.92023">
        <ele>1797.802734</ele>
        <time>2008-04-13T07:04:39Z</time>
      </trkpt>
      <trkpt lat="44.39637" lon="6.92012">
        <ele>1797.802734</ele>
        <time>2008-04-13T07:04:57Z</time>
      </trkpt>
      <trkpt lat="44.39625" lon="6.91997">
        <ele>1797.802734</ele>
        <time>2008-04-13T07:05:16Z</time>
      </trkpt>
      <trkpt lat="44.39614" lon="6.91982">
        <ele>1797.802734</ele>
        <time>2008-04-13T07:05:37Z</time>
      </trkpt>
      <trkpt lat="44.39603" lon="6.91971">
        <ele>1797.802734</ele>
        <time>2008-04-13T07:05:56Z</time>
      </trkpt>
      <trkpt lat="44.39599" lon="6.91956">
        <ele>1797.802734</ele>
        <time>2008-04-13T07:06:13Z</time>
      </trkpt>
      <trkpt lat="44.39597" lon="6.91943">
        <ele>1798.763916</ele>
        <time>2008-04-13T07:06:31Z</time>
      </trkpt>
      <trkpt lat="44.39586" lon="6.91935">
        <ele>1798.763916</ele>
        <time>2008-04-13T07:06:49Z</time>
      </trkpt>
      <trkpt lat="44.39577" lon="6.91928">
        <ele>1798.763916</ele>
        <time>2008-04-13T07:07:08Z</time>
      </trkpt>
      <trkpt lat="44.39567" lon="6.91918">
        <ele>1798.763916</ele>
        <time>2008-04-13T07:07:29Z</time>
      </trkpt>
      <trkpt lat="44.39556" lon="6.91913">
        <ele>1807.896729</ele>
        <time>2008-04-13T07:07:48Z</time>
      </trkpt>
      <trkpt lat="44.39547" lon="6.91907">
        <ele>1817.509521</ele>
        <time>2008-04-13T07:08:07Z</time>
      </trkpt>
      <trkpt lat="44.39537" lon="6.91896">
        <ele>1821.835693</ele>
        <time>2008-04-13T07:08:27Z</time>
      </trkpt>
      <trkpt lat="44.39537" lon="6.91898">
        <ele>1830.487549</ele>
        <time>2008-04-13T07:08:48Z</time>
      </trkpt>
      <trkpt lat="44.39534" lon="6.91907">
        <ele>1845.868652</ele>
        <time>2008-04-13T07:09:22Z</time>
      </trkpt>
      <trkpt lat="44.39534" lon="6.9192">
        <ele>1869.901611</ele>
        <time>2008-04-13T07:10:38Z</time>
      </trkpt>
      <trkpt lat="44.3953" lon="6.91909">
        <ele>1867.017578</ele>
        <time>2008-04-13T07:11:00Z</time>
      </trkpt>
      <trkpt lat="44.39522" lon="6.919">
        <ele>1867.498047</ele>
        <time>2008-04-13T07:11:16Z</time>
      </trkpt>
      <trkpt lat="44.39513" lon="6.9189">
        <ele>1867.017578</ele>
        <time>2008-04-13T07:11:33Z</time>
      </trkpt>
      <trkpt lat="44.39507" lon="6.91885">
        <ele>1871.824219</ele>
        <time>2008-04-13T07:11:48Z</time>
      </trkpt>
      <trkpt lat="44.395" lon="6.91879">
        <ele>1871.343506</ele>
        <time>2008-04-13T07:12:03Z</time>
      </trkpt>
      <trkpt lat="44.39496" lon="6.9187">
        <ele>1872.304932</ele>
        <time>2008-04-13T07:12:19Z</time>
      </trkpt>
      <trkpt lat="44.39489" lon="6.91862">
        <ele>1873.266357</ele>
        <time>2008-04-13T07:12:34Z</time>
      </trkpt>
      <trkpt lat="44.39483" lon="6.91853">
        <ele>1873.746826</ele>
        <time>2008-04-13T07:12:50Z</time>
      </trkpt>
      <trkpt lat="44.39476" lon="6.91845">
        <ele>1874.708252</ele>
        <time>2008-04-13T07:13:07Z</time>
      </trkpt>
      <trkpt lat="44.3947" lon="6.91836">
        <ele>1875.188721</ele>
        <time>2008-04-13T07:13:22Z</time>
      </trkpt>
      <trkpt lat="44.39466" lon="6.91828">
        <ele>1876.630859</ele>
        <time>2008-04-13T07:13:38Z</time>
      </trkpt>
      <trkpt lat="44.39457" lon="6.91823">
        <ele>1879.033936</ele>
        <time>2008-04-13T07:13:54Z</time>
      </trkpt>
      <trkpt lat="44.39453" lon="6.91819">
        <ele>1880.956787</ele>
        <time>2008-04-13T07:14:07Z</time>
      </trkpt>
      <trkpt lat="44.39442" lon="6.91813">
        <ele>1883.359863</ele>
        <time>2008-04-13T07:14:24Z</time>
      </trkpt>
      <trkpt lat="44.39431" lon="6.91806">
        <ele>1884.802246</ele>
        <time>2008-04-13T07:14:41Z</time>
      </trkpt>
      <trkpt lat="44.39425" lon="6.91797">
        <ele>1884.802246</ele>
        <time>2008-04-13T07:14:57Z</time>
      </trkpt>
      <trkpt lat="44.39419" lon="6.91789">
        <ele>1885.763428</ele>
        <time>2008-04-13T07:15:13Z</time>
      </trkpt>
      <trkpt lat="44.39412" lon="6.91778">
        <ele>1888.166748</ele>
        <time>2008-04-13T07:15:30Z</time>
      </trkpt>
      <trkpt lat="44.39401" lon="6.91767">
        <ele>1888.166748</ele>
        <time>2008-04-13T07:15:48Z</time>
      </trkpt>
      <trkpt lat="44.39393" lon="6.91759">
        <ele>1888.166748</ele>
        <time>2008-04-13T07:16:03Z</time>
      </trkpt>
      <trkpt lat="44.39382" lon="6.91755">
        <ele>1889.12793</ele>
        <time>2008-04-13T07:16:19Z</time>
      </trkpt>
      <trkpt lat="44.39371" lon="6.91752">
        <ele>1890.089355</ele>
        <time>2008-04-13T07:16:35Z</time>
      </trkpt>
      <trkpt lat="44.39365" lon="6.91746">
        <ele>1890.089355</ele>
        <time>2008-04-13T07:16:50Z</time>
      </trkpt>
      <trkpt lat="44.39356" lon="6.91742">
        <ele>1891.050537</ele>
        <time>2008-04-13T07:17:05Z</time>
      </trkpt>
      <trkpt lat="44.39346" lon="6.91737">
        <ele>1892.011963</ele>
        <time>2008-04-13T07:17:22Z</time>
      </trkpt>
      <trkpt lat="44.39335" lon="6.91727">
        <ele>1892.492676</ele>
        <time>2008-04-13T07:17:39Z</time>
      </trkpt>
      <trkpt lat="44.39324" lon="6.91716">
        <ele>1893.93457</ele>
        <time>2008-04-13T07:17:58Z</time>
      </trkpt>
      <trkpt lat="44.39313" lon="6.91716">
        <ele>1895.376465</ele>
        <time>2008-04-13T07:18:15Z</time>
      </trkpt>
      <trkpt lat="44.39301" lon="6.91716">
        <ele>1895.857178</ele>
        <time>2008-04-13T07:18:32Z</time>
      </trkpt>
      <trkpt lat="44.39288" lon="6.91705">
        <ele>1896.818359</ele>
        <time>2008-04-13T07:18:52Z</time>
      </trkpt>
      <trkpt lat="44.39279" lon="6.9169">
        <ele>1898.260254</ele>
        <time>2008-04-13T07:19:11Z</time>
      </trkpt>
      <trkpt lat="44.39266" lon="6.91673">
        <ele>1899.22168</ele>
        <time>2008-04-13T07:19:32Z</time>
      </trkpt>
      <trkpt lat="44.39251" lon="6.91664">
        <ele>1900.663818</ele>
        <time>2008-04-13T07:19:51Z</time>
      </trkpt>
      <trkpt lat="44.39238" lon="6.91656">
        <ele>1901.144531</ele>
        <time>2008-04-13T07:20:09Z</time>
      </trkpt>
      <trkpt lat="44.39225" lon="6.91649">
        <ele>1902.105713</ele>
        <time>2008-04-13T07:20:27Z</time>
      </trkpt>
      <trkpt lat="44.3921" lon="6.91645">
        <ele>1903.067139</ele>
        <time>2008-04-13T07:20:47Z</time>
      </trkpt>
      <trkpt lat="44.39198" lon="6.91641">
        <ele>1903.547852</ele>
        <time>2008-04-13T07:21:07Z</time>
      </trkpt>
      <trkpt lat="44.39185" lon="6.91639">
        <ele>1904.028564</ele>
        <time>2008-04-13T07:21:25Z</time>
      </trkpt>
      <trkpt lat="44.39172" lon="6.91637">
        <ele>1904.028564</ele>
        <time>2008-04-13T07:21:41Z</time>
      </trkpt>
      <trkpt lat="44.39157" lon="6.91632">
        <ele>1904.509033</ele>
        <time>2008-04-13T07:22:00Z</time>
      </trkpt>
      <trkpt lat="44.39142" lon="6.9163">
        <ele>1904.509033</ele>
        <time>2008-04-13T07:22:19Z</time>
      </trkpt>
      <trkpt lat="44.39127" lon="6.91628">
        <ele>1904.509033</ele>
        <time>2008-04-13T07:22:39Z</time>
      </trkpt>
      <trkpt lat="44.39116" lon="6.91624">
        <ele>1904.509033</ele>
        <time>2008-04-13T07:22:55Z</time>
      </trkpt>
      <trkpt lat="44.39105" lon="6.91619">
        <ele>1904.509033</ele>
        <time>2008-04-13T07:23:13Z</time>
      </trkpt>
      <trkpt lat="44.3909" lon="6.91611">
        <ele>1904.509033</ele>
        <time>2008-04-13T07:23:33Z</time>
      </trkpt>
      <trkpt lat="44.39075" lon="6.91602">
        <ele>1904.509033</ele>
        <time>2008-04-13T07:23:53Z</time>
      </trkpt>
      <trkpt lat="44.3906" lon="6.91592">
        <ele>1904.509033</ele>
        <time>2008-04-13T07:24:12Z</time>
      </trkpt>
      <trkpt lat="44.39056" lon="6.91587">
        <ele>1904.509033</ele>
        <time>2008-04-13T07:24:19Z</time>
      </trkpt>
      <trkpt lat="44.39043" lon="6.91574">
        <ele>1904.509033</ele>
        <time>2008-04-13T07:24:39Z</time>
      </trkpt>
      <trkpt lat="44.39034" lon="6.91566">
        <ele>1904.509033</ele>
        <time>2008-04-13T07:24:55Z</time>
      </trkpt>
      <trkpt lat="44.39022" lon="6.91551">
        <ele>1904.509033</ele>
        <time>2008-04-13T07:25:16Z</time>
      </trkpt>
      <trkpt lat="44.39007" lon="6.91538">
        <ele>1904.509033</ele>
        <time>2008-04-13T07:25:38Z</time>
      </trkpt>
      <trkpt lat="44.38996" lon="6.91536">
        <ele>1904.509033</ele>
        <time>2008-04-13T07:25:56Z</time>
      </trkpt>
      <trkpt lat="44.38989" lon="6.91538">
        <ele>1904.509033</ele>
        <time>2008-04-13T07:26:09Z</time>
      </trkpt>
      <trkpt lat="44.38987" lon="6.91536">
        <ele>1904.509033</ele>
        <time>2008-04-13T07:26:21Z</time>
      </trkpt>
      <trkpt lat="44.38983" lon="6.91531">
        <ele>1904.509033</ele>
        <time>2008-04-13T07:26:36Z</time>
      </trkpt>
      <trkpt lat="44.38979" lon="6.91531">
        <ele>1904.509033</ele>
        <time>2008-04-13T07:26:57Z</time>
      </trkpt>
      <trkpt lat="44.38974" lon="6.91531">
        <ele>1904.509033</ele>
        <time>2008-04-13T07:27:10Z</time>
      </trkpt>
      <trkpt lat="44.38974" lon="6.91531">
        <ele>1904.509033</ele>
        <time>2008-04-13T07:27:21Z</time>
      </trkpt>
      <trkpt lat="44.38972" lon="6.91531">
        <ele>1904.509033</ele>
        <time>2008-04-13T07:27:41Z</time>
      </trkpt>
      <trkpt lat="44.38966" lon="6.91525">
        <ele>1904.509033</ele>
        <time>2008-04-13T07:28:00Z</time>
      </trkpt>
      <trkpt lat="44.38962" lon="6.91516">
        <ele>1904.509033</ele>
        <time>2008-04-13T07:28:15Z</time>
      </trkpt>
      <trkpt lat="44.38953" lon="6.91512">
        <ele>1910.276855</ele>
        <time>2008-04-13T07:28:29Z</time>
      </trkpt>
      <trkpt lat="44.38944" lon="6.91508">
        <ele>1919.890137</ele>
        <time>2008-04-13T07:28:47Z</time>
      </trkpt>
      <trkpt lat="44.38929" lon="6.91497">
        <ele>1924.696777</ele>
        <time>2008-04-13T07:29:06Z</time>
      </trkpt>
      <trkpt lat="44.38912" lon="6.91484">
        <ele>1927.580566</ele>
        <time>2008-04-13T07:29:28Z</time>
      </trkpt>
      <trkpt lat="44.38897" lon="6.91478">
        <ele>1929.983887</ele>
        <time>2008-04-13T07:29:46Z</time>
      </trkpt>
      <trkpt lat="44.3888" lon="6.91469">
        <ele>1931.906494</ele>
        <time>2008-04-13T07:30:07Z</time>
      </trkpt>
      <trkpt lat="44.38865" lon="6.91463">
        <ele>1933.829346</ele>
        <time>2008-04-13T07:30:26Z</time>
      </trkpt>
      <trkpt lat="44.38846" lon="6.91458">
        <ele>1936.232666</ele>
        <time>2008-04-13T07:30:48Z</time>
      </trkpt>
      <trkpt lat="44.38831" lon="6.91452">
        <ele>1937.193848</ele>
        <time>2008-04-13T07:31:09Z</time>
      </trkpt>
      <trkpt lat="44.38811" lon="6.91443">
        <ele>1939.597168</ele>
        <time>2008-04-13T07:31:33Z</time>
      </trkpt>
      <trkpt lat="44.38794" lon="6.91437">
        <ele>1942.000488</ele>
        <time>2008-04-13T07:31:54Z</time>
      </trkpt>
      <trkpt lat="44.38781" lon="6.91428">
        <ele>1942.481201</ele>
        <time>2008-04-13T07:32:15Z</time>
      </trkpt>
      <trkpt lat="44.38781" lon="6.91431">
        <ele>1941.519775</ele>
        <time>2008-04-13T07:32:43Z</time>
      </trkpt>
      <trkpt lat="44.38773" lon="6.91424">
        <ele>1943.442383</ele>
        <time>2008-04-13T07:33:55Z</time>
      </trkpt>
      <trkpt lat="44.38762" lon="6.91418">
        <ele>1945.36499</ele>
        <time>2008-04-13T07:34:10Z</time>
      </trkpt>
      <trkpt lat="44.38749" lon="6.91396">
        <ele>1949.210449</ele>
        <time>2008-04-13T07:34:33Z</time>
      </trkpt>
      <trkpt lat="44.38747" lon="6.91394">
        <ele>1950.652344</ele>
        <time>2008-04-13T07:34:47Z</time>
      </trkpt>
      <trkpt lat="44.38745" lon="6.91396">
        <ele>1952.094238</ele>
        <time>2008-04-13T07:35:24Z</time>
      </trkpt>
      <trkpt lat="44.38745" lon="6.91394">
        <ele>1952.574951</ele>
        <time>2008-04-13T07:35:56Z</time>
      </trkpt>
      <trkpt lat="44.38745" lon="6.91394">
        <ele>1953.055664</ele>
        <time>2008-04-13T07:36:10Z</time>
      </trkpt>
      <trkpt lat="44.38749" lon="6.91392">
        <ele>1950.171875</ele>
        <time>2008-04-13T07:37:38Z</time>
      </trkpt>
      <trkpt lat="44.38743" lon="6.91386">
        <ele>1952.574951</ele>
        <time>2008-04-13T07:37:56Z</time>
      </trkpt>
      <trkpt lat="44.3873" lon="6.91377">
        <ele>1953.055664</ele>
        <time>2008-04-13T07:38:12Z</time>
      </trkpt>
      <trkpt lat="44.38717" lon="6.91368">
        <ele>1953.536377</ele>
        <time>2008-04-13T07:38:27Z</time>
      </trkpt>
      <trkpt lat="44.38702" lon="6.9136">
        <ele>1955.458984</ele>
        <time>2008-04-13T07:38:46Z</time>
      </trkpt>
      <trkpt lat="44.38695" lon="6.91353">
        <ele>1955.939453</ele>
        <time>2008-04-13T07:39:00Z</time>
      </trkpt>
      <trkpt lat="44.38678" lon="6.91338">
        <ele>1955.939453</ele>
        <time>2008-04-13T07:39:22Z</time>
      </trkpt>
      <trkpt lat="44.38661" lon="6.91325">
        <ele>1955.458984</ele>
        <time>2008-04-13T07:39:41Z</time>
      </trkpt>
      <trkpt lat="44.3864" lon="6.9131">
        <ele>1956.420166</ele>
        <time>2008-04-13T07:40:05Z</time>
      </trkpt>
      <trkpt lat="44.38625" lon="6.91298">
        <ele>1955.939453</ele>
        <time>2008-04-13T07:40:24Z</time>
      </trkpt>
      <trkpt lat="44.38605" lon="6.91287">
        <ele>1957.381592</ele>
        <time>2008-04-13T07:40:42Z</time>
      </trkpt>
      <trkpt lat="44.38588" lon="6.91278">
        <ele>1958.342773</ele>
        <time>2008-04-13T07:41:02Z</time>
      </trkpt>
      <trkpt lat="44.38577" lon="6.9127">
        <ele>1959.304199</ele>
        <time>2008-04-13T07:41:17Z</time>
      </trkpt>
      <trkpt lat="44.3856" lon="6.91265">
        <ele>1959.304199</ele>
        <time>2008-04-13T07:41:37Z</time>
      </trkpt>
      <trkpt lat="44.38552" lon="6.91259">
        <ele>1961.70752</ele>
        <time>2008-04-13T07:41:55Z</time>
      </trkpt>
      <trkpt lat="44.38539" lon="6.91255">
        <ele>1964.11084</ele>
        <time>2008-04-13T07:42:11Z</time>
      </trkpt>
      <trkpt lat="44.38526" lon="6.9125">
        <ele>1964.11084</ele>
        <time>2008-04-13T07:42:28Z</time>
      </trkpt>
      <trkpt lat="44.38515" lon="6.91246">
        <ele>1965.552979</ele>
        <time>2008-04-13T07:42:44Z</time>
      </trkpt>
      <trkpt lat="44.38502" lon="6.91244">
        <ele>1966.994873</ele>
        <time>2008-04-13T07:43:02Z</time>
      </trkpt>
      <trkpt lat="44.38492" lon="6.9124">
        <ele>1969.878662</ele>
        <time>2008-04-13T07:43:18Z</time>
      </trkpt>
      <trkpt lat="44.38481" lon="6.91237">
        <ele>1971.320557</ele>
        <time>2008-04-13T07:43:36Z</time>
      </trkpt>
      <trkpt lat="44.38466" lon="6.91233">
        <ele>1973.243408</ele>
        <time>2008-04-13T07:43:55Z</time>
      </trkpt>
      <trkpt lat="44.38455" lon="6.91229">
        <ele>1974.685303</ele>
        <time>2008-04-13T07:44:10Z</time>
      </trkpt>
      <trkpt lat="44.3844" lon="6.91227">
        <ele>1974.20459</ele>
        <time>2008-04-13T07:44:27Z</time>
      </trkpt>
      <trkpt lat="44.38427" lon="6.91225">
        <ele>1977.088623</ele>
        <time>2008-04-13T07:44:48Z</time>
      </trkpt>
      <trkpt lat="44.38414" lon="6.91225">
        <ele>1979.010986</ele>
        <time>2008-04-13T07:45:05Z</time>
      </trkpt>
      <trkpt lat="44.38404" lon="6.91225">
        <ele>1980.934082</ele>
        <time>2008-04-13T07:45:21Z</time>
      </trkpt>
      <trkpt lat="44.38393" lon="6.91225">
        <ele>1981.895264</ele>
        <time>2008-04-13T07:45:39Z</time>
      </trkpt>
      <trkpt lat="44.38378" lon="6.91227">
        <ele>1983.337158</ele>
        <time>2008-04-13T07:45:59Z</time>
      </trkpt>
      <trkpt lat="44.38365" lon="6.91227">
        <ele>1985.740479</ele>
        <time>2008-04-13T07:46:20Z</time>
      </trkpt>
      <trkpt lat="44.3835" lon="6.91229">
        <ele>1988.624512</ele>
        <time>2008-04-13T07:46:41Z</time>
      </trkpt>
      <trkpt lat="44.38335" lon="6.91225">
        <ele>1991.508301</ele>
        <time>2008-04-13T07:47:01Z</time>
      </trkpt>
      <trkpt lat="44.3832" lon="6.91229">
        <ele>1992.469727</ele>
        <time>2008-04-13T07:47:22Z</time>
      </trkpt>
      <trkpt lat="44.38303" lon="6.91231">
        <ele>1993.911621</ele>
        <time>2008-04-13T07:47:44Z</time>
      </trkpt>
      <trkpt lat="44.38288" lon="6.91233">
        <ele>1996.315186</ele>
        <time>2008-04-13T07:48:05Z</time>
      </trkpt>
      <trkpt lat="44.38275" lon="6.91233">
        <ele>1999.679688</ele>
        <time>2008-04-13T07:48:26Z</time>
      </trkpt>
      <trkpt lat="44.38262" lon="6.91237">
        <ele>2002.082764</ele>
        <time>2008-04-13T07:48:46Z</time>
      </trkpt>
      <trkpt lat="44.38249" lon="6.9124">
        <ele>2005.927979</ele>
        <time>2008-04-13T07:49:07Z</time>
      </trkpt>
      <trkpt lat="44.38236" lon="6.9124">
        <ele>2008.812012</ele>
        <time>2008-04-13T07:49:26Z</time>
      </trkpt>
      <trkpt lat="44.38226" lon="6.91237">
        <ele>2011.696045</ele>
        <time>2008-04-13T07:49:45Z</time>
      </trkpt>
      <trkpt lat="44.38221" lon="6.91237">
        <ele>2012.657471</ele>
        <time>2008-04-13T07:50:03Z</time>
      </trkpt>
      <trkpt lat="44.38215" lon="6.91233">
        <ele>2014.099365</ele>
        <time>2008-04-13T07:50:20Z</time>
      </trkpt>
      <trkpt lat="44.38193" lon="6.91227">
        <ele>2015.060791</ele>
        <time>2008-04-13T07:50:44Z</time>
      </trkpt>
      <trkpt lat="44.38178" lon="6.9122">
        <ele>2017.463867</ele>
        <time>2008-04-13T07:51:05Z</time>
      </trkpt>
      <trkpt lat="44.38165" lon="6.91218">
        <ele>2020.3479</ele>
        <time>2008-04-13T07:51:25Z</time>
      </trkpt>
      <trkpt lat="44.38153" lon="6.91216">
        <ele>2024.673828</ele>
        <time>2008-04-13T07:51:50Z</time>
      </trkpt>
      <trkpt lat="44.38142" lon="6.9121">
        <ele>2027.557617</ele>
        <time>2008-04-13T07:52:10Z</time>
      </trkpt>
      <trkpt lat="44.38127" lon="6.91205">
        <ele>2030.922607</ele>
        <time>2008-04-13T07:52:34Z</time>
      </trkpt>
      <trkpt lat="44.38116" lon="6.91197">
        <ele>2035.729004</ele>
        <time>2008-04-13T07:52:58Z</time>
      </trkpt>
      <trkpt lat="44.3811" lon="6.91186">
        <ele>2041.496826</ele>
        <time>2008-04-13T07:53:20Z</time>
      </trkpt>
      <trkpt lat="44.38099" lon="6.91173">
        <ele>2044.861572</ele>
        <time>2008-04-13T07:53:45Z</time>
      </trkpt>
      <trkpt lat="44.38086" lon="6.91164">
        <ele>2053.513428</ele>
        <time>2008-04-13T07:54:12Z</time>
      </trkpt>
      <trkpt lat="44.38075" lon="6.91162">
        <ele>2055.916504</ele>
        <time>2008-04-13T07:54:35Z</time>
      </trkpt>
      <trkpt lat="44.38062" lon="6.91154">
        <ele>2059.761719</ele>
        <time>2008-04-13T07:54:59Z</time>
      </trkpt>
      <trkpt lat="44.3805" lon="6.91147">
        <ele>2063.126709</ele>
        <time>2008-04-13T07:55:21Z</time>
      </trkpt>
      <trkpt lat="44.38037" lon="6.91145">
        <ele>2066.010498</ele>
        <time>2008-04-13T07:55:42Z</time>
      </trkpt>
      <trkpt lat="44.38022" lon="6.91145">
        <ele>2068.413818</ele>
        <time>2008-04-13T07:56:06Z</time>
      </trkpt>
      <trkpt lat="44.38017" lon="6.91143">
        <ele>2071.77832</ele>
        <time>2008-04-13T07:56:23Z</time>
      </trkpt>
      <trkpt lat="44.38015" lon="6.91143">
        <ele>2066.010498</ele>
        <time>2008-04-13T07:57:39Z</time>
      </trkpt>
      <trkpt lat="44.38011" lon="6.91139">
        <ele>2066.971924</ele>
        <time>2008-04-13T07:57:56Z</time>
      </trkpt>
      <trkpt lat="44.38011" lon="6.91139">
        <ele>2069.375244</ele>
        <time>2008-04-13T07:58:15Z</time>
      </trkpt>
      <trkpt lat="44.38009" lon="6.91137">
        <ele>2066.491211</ele>
        <time>2008-04-13T07:59:02Z</time>
      </trkpt>
      <trkpt lat="44.38002" lon="6.91134">
        <ele>2068.894531</ele>
        <time>2008-04-13T07:59:23Z</time>
      </trkpt>
      <trkpt lat="44.38002" lon="6.91134">
        <ele>2067.933105</ele>
        <time>2008-04-13T08:00:01Z</time>
      </trkpt>
      <trkpt lat="44.38" lon="6.91134">
        <ele>2069.375244</ele>
        <time>2008-04-13T08:00:22Z</time>
      </trkpt>
      <trkpt lat="44.37998" lon="6.91134">
        <ele>2069.855713</ele>
        <time>2008-04-13T08:01:06Z</time>
      </trkpt>
      <trkpt lat="44.37985" lon="6.91134">
        <ele>2073.700928</ele>
        <time>2008-04-13T08:01:27Z</time>
      </trkpt>
      <trkpt lat="44.37981" lon="6.9113">
        <ele>2078.988281</ele>
        <time>2008-04-13T08:01:47Z</time>
      </trkpt>
      <trkpt lat="44.37983" lon="6.91132">
        <ele>2074.662354</ele>
        <time>2008-04-13T08:02:07Z</time>
      </trkpt>
      <trkpt lat="44.37979" lon="6.91134">
        <ele>2068.413818</ele>
        <time>2008-04-13T08:04:16Z</time>
      </trkpt>
      <trkpt lat="44.37979" lon="6.91132">
        <ele>2069.375244</ele>
        <time>2008-04-13T08:04:36Z</time>
      </trkpt>
      <trkpt lat="44.37981" lon="6.91132">
        <ele>2069.855713</ele>
        <time>2008-04-13T08:05:05Z</time>
      </trkpt>
      <trkpt lat="44.37974" lon="6.91128">
        <ele>2069.855713</ele>
        <time>2008-04-13T08:05:21Z</time>
      </trkpt>
      <trkpt lat="44.37966" lon="6.91126">
        <ele>2070.817139</ele>
        <time>2008-04-13T08:05:36Z</time>
      </trkpt>
      <trkpt lat="44.37953" lon="6.91122">
        <ele>2076.585205</ele>
        <time>2008-04-13T08:05:57Z</time>
      </trkpt>
      <trkpt lat="44.3794" lon="6.91119">
        <ele>2080.43042</ele>
        <time>2008-04-13T08:06:17Z</time>
      </trkpt>
      <trkpt lat="44.37923" lon="6.91113">
        <ele>2081.872314</ele>
        <time>2008-04-13T08:06:40Z</time>
      </trkpt>
      <trkpt lat="44.3791" lon="6.91109">
        <ele>2084.756348</ele>
        <time>2008-04-13T08:07:00Z</time>
      </trkpt>
      <trkpt lat="44.37895" lon="6.91107">
        <ele>2087.159424</ele>
        <time>2008-04-13T08:07:22Z</time>
      </trkpt>
      <trkpt lat="44.3788" lon="6.91102">
        <ele>2089.082031</ele>
        <time>2008-04-13T08:07:44Z</time>
      </trkpt>
      <trkpt lat="44.37865" lon="6.91098">
        <ele>2090.523926</ele>
        <time>2008-04-13T08:08:07Z</time>
      </trkpt>
      <trkpt lat="44.37854" lon="6.91094">
        <ele>2091.004639</ele>
        <time>2008-04-13T08:08:29Z</time>
      </trkpt>
      <trkpt lat="44.37841" lon="6.91089">
        <ele>2095.330811</ele>
        <time>2008-04-13T08:08:50Z</time>
      </trkpt>
      <trkpt lat="44.37831" lon="6.91085">
        <ele>2100.137451</ele>
        <time>2008-04-13T08:09:15Z</time>
      </trkpt>
      <trkpt lat="44.37818" lon="6.91081">
        <ele>2103.982666</ele>
        <time>2008-04-13T08:09:36Z</time>
      </trkpt>
      <trkpt lat="44.37809" lon="6.91077">
        <ele>2105.424561</ele>
        <time>2008-04-13T08:09:56Z</time>
      </trkpt>
      <trkpt lat="44.37799" lon="6.91072">
        <ele>2107.827881</ele>
        <time>2008-04-13T08:10:18Z</time>
      </trkpt>
      <trkpt lat="44.37788" lon="6.91066">
        <ele>2111.192627</ele>
        <time>2008-04-13T08:10:37Z</time>
      </trkpt>
      <trkpt lat="44.37777" lon="6.91061">
        <ele>2114.557129</ele>
        <time>2008-04-13T08:10:59Z</time>
      </trkpt>
      <trkpt lat="44.37764" lon="6.91057">
        <ele>2116.479736</ele>
        <time>2008-04-13T08:11:22Z</time>
      </trkpt>
      <trkpt lat="44.37756" lon="6.91053">
        <ele>2115.999023</ele>
        <time>2008-04-13T08:11:42Z</time>
      </trkpt>
      <trkpt lat="44.37743" lon="6.91046">
        <ele>2115.999023</ele>
        <time>2008-04-13T08:12:04Z</time>
      </trkpt>
      <trkpt lat="44.37734" lon="6.91038">
        <ele>2115.999023</ele>
        <time>2008-04-13T08:12:27Z</time>
      </trkpt>
      <trkpt lat="44.37723" lon="6.91031">
        <ele>2115.999023</ele>
        <time>2008-04-13T08:12:47Z</time>
      </trkpt>
      <trkpt lat="44.37715" lon="6.91029">
        <ele>2115.999023</ele>
        <time>2008-04-13T08:13:07Z</time>
      </trkpt>
      <trkpt lat="44.37704" lon="6.91029">
        <ele>2115.999023</ele>
        <time>2008-04-13T08:13:26Z</time>
      </trkpt>
      <trkpt lat="44.37691" lon="6.91029">
        <ele>2115.999023</ele>
        <time>2008-04-13T08:13:46Z</time>
      </trkpt>
      <trkpt lat="44.3768" lon="6.91025">
        <ele>2115.999023</ele>
        <time>2008-04-13T08:14:04Z</time>
      </trkpt>
      <trkpt lat="44.37668" lon="6.91016">
        <ele>2115.999023</ele>
        <time>2008-04-13T08:14:26Z</time>
      </trkpt>
      <trkpt lat="44.3765" lon="6.91008">
        <ele>2115.999023</ele>
        <time>2008-04-13T08:14:49Z</time>
      </trkpt>
      <trkpt lat="44.3764" lon="6.90999">
        <ele>2115.999023</ele>
        <time>2008-04-13T08:15:08Z</time>
      </trkpt>
      <trkpt lat="44.37627" lon="6.90991">
        <ele>2115.999023</ele>
        <time>2008-04-13T08:15:30Z</time>
      </trkpt>
      <trkpt lat="44.37616" lon="6.90986">
        <ele>2115.518555</ele>
        <time>2008-04-13T08:15:50Z</time>
      </trkpt>
      <trkpt lat="44.37603" lon="6.90982">
        <ele>2115.518555</ele>
        <time>2008-04-13T08:16:10Z</time>
      </trkpt>
      <trkpt lat="44.37595" lon="6.90978">
        <ele>2115.999023</ele>
        <time>2008-04-13T08:16:30Z</time>
      </trkpt>
      <trkpt lat="44.37584" lon="6.90974">
        <ele>2115.999023</ele>
        <time>2008-04-13T08:16:49Z</time>
      </trkpt>
      <trkpt lat="44.37569" lon="6.90969">
        <ele>2115.999023</ele>
        <time>2008-04-13T08:17:11Z</time>
      </trkpt>
      <trkpt lat="44.37556" lon="6.90965">
        <ele>2116.479736</ele>
        <time>2008-04-13T08:17:32Z</time>
      </trkpt>
      <trkpt lat="44.37552" lon="6.90965">
        <ele>2116.479736</ele>
        <time>2008-04-13T08:17:52Z</time>
      </trkpt>
      <trkpt lat="44.37552" lon="6.90965">
        <ele>2116.960449</ele>
        <time>2008-04-13T08:18:29Z</time>
      </trkpt>
      <trkpt lat="44.3755" lon="6.90965">
        <ele>2117.440918</ele>
        <time>2008-04-13T08:18:37Z</time>
      </trkpt>
      <trkpt lat="44.3753" lon="6.90946">
        <ele>2117.921631</ele>
        <time>2008-04-13T08:19:05Z</time>
      </trkpt>
      <trkpt lat="44.37517" lon="6.90935">
        <ele>2118.402344</ele>
        <time>2008-04-13T08:19:26Z</time>
      </trkpt>
      <trkpt lat="44.37505" lon="6.90926">
        <ele>2119.36377</ele>
        <time>2008-04-13T08:19:48Z</time>
      </trkpt>
      <trkpt lat="44.37496" lon="6.9092">
        <ele>2120.324951</ele>
        <time>2008-04-13T08:20:08Z</time>
      </trkpt>
      <trkpt lat="44.37485" lon="6.90916">
        <ele>2121.766846</ele>
        <time>2008-04-13T08:20:29Z</time>
      </trkpt>
      <trkpt lat="44.37474" lon="6.90909">
        <ele>2123.689453</ele>
        <time>2008-04-13T08:20:50Z</time>
      </trkpt>
      <trkpt lat="44.37468" lon="6.90896">
        <ele>2126.57373</ele>
        <time>2008-04-13T08:21:12Z</time>
      </trkpt>
      <trkpt lat="44.37457" lon="6.90888">
        <ele>2128.496338</ele>
        <time>2008-04-13T08:21:35Z</time>
      </trkpt>
      <trkpt lat="44.37455" lon="6.90888">
        <ele>2198.19165</ele>
        <time>2008-04-13T08:22:00Z</time>
      </trkpt>
      <trkpt lat="44.37449" lon="6.90886">
        <ele>2201.075684</ele>
        <time>2008-04-13T08:22:24Z</time>
      </trkpt>
      <trkpt lat="44.3744" lon="6.90881">
        <ele>2204.44043</ele>
        <time>2008-04-13T08:22:51Z</time>
      </trkpt>
      <trkpt lat="44.37429" lon="6.90871">
        <ele>2208.285645</ele>
        <time>2008-04-13T08:23:17Z</time>
      </trkpt>
      <trkpt lat="44.37421" lon="6.90866">
        <ele>2211.650391</ele>
        <time>2008-04-13T08:23:37Z</time>
      </trkpt>
      <trkpt lat="44.37421" lon="6.90864">
        <ele>2215.495605</ele>
        <time>2008-04-13T08:24:42Z</time>
      </trkpt>
      <trkpt lat="44.37421" lon="6.90864">
        <ele>2210.208252</ele>
        <time>2008-04-13T08:25:24Z</time>
      </trkpt>
      <trkpt lat="44.3741" lon="6.90862">
        <ele>2212.130859</ele>
        <time>2008-04-13T08:25:55Z</time>
      </trkpt>
      <trkpt lat="44.37399" lon="6.90875">
        <ele>2214.53418</ele>
        <time>2008-04-13T08:26:13Z</time>
      </trkpt>
      <trkpt lat="44.37389" lon="6.9089">
        <ele>2216.456787</ele>
        <time>2008-04-13T08:26:34Z</time>
      </trkpt>
      <trkpt lat="44.37376" lon="6.90896">
        <ele>2219.34082</ele>
        <time>2008-04-13T08:26:53Z</time>
      </trkpt>
      <trkpt lat="44.37369" lon="6.90898">
        <ele>2219.34082</ele>
        <time>2008-04-13T08:27:15Z</time>
      </trkpt>
      <trkpt lat="44.37365" lon="6.90898">
        <ele>2219.821289</ele>
        <time>2008-04-13T08:28:04Z</time>
      </trkpt>
      <trkpt lat="44.37346" lon="6.90892">
        <ele>2224.147461</ele>
        <time>2008-04-13T08:28:28Z</time>
      </trkpt>
      <trkpt lat="44.37335" lon="6.9089">
        <ele>2226.070068</ele>
        <time>2008-04-13T08:28:48Z</time>
      </trkpt>
      <trkpt lat="44.37324" lon="6.90883">
        <ele>2228.953857</ele>
        <time>2008-04-13T08:29:10Z</time>
      </trkpt>
      <trkpt lat="44.37316" lon="6.90875">
        <ele>2231.837891</ele>
        <time>2008-04-13T08:29:32Z</time>
      </trkpt>
      <trkpt lat="44.37309" lon="6.90866">
        <ele>2235.202393</ele>
        <time>2008-04-13T08:29:50Z</time>
      </trkpt>
      <trkpt lat="44.37305" lon="6.9086">
        <ele>2237.125244</ele>
        <time>2008-04-13T08:30:08Z</time>
      </trkpt>
      <trkpt lat="44.37299" lon="6.90858">
        <ele>2240.009277</ele>
        <time>2008-04-13T08:30:24Z</time>
      </trkpt>
      <trkpt lat="44.37292" lon="6.90856">
        <ele>2242.412598</ele>
        <time>2008-04-13T08:30:40Z</time>
      </trkpt>
      <trkpt lat="44.37286" lon="6.90851">
        <ele>2244.815674</ele>
        <time>2008-04-13T08:30:56Z</time>
      </trkpt>
      <trkpt lat="44.37277" lon="6.90849">
        <ele>2246.738281</ele>
        <time>2008-04-13T08:31:13Z</time>
      </trkpt>
      <trkpt lat="44.37266" lon="6.90847">
        <ele>2248.180176</ele>
        <time>2008-04-13T08:31:33Z</time>
      </trkpt>
      <trkpt lat="44.37253" lon="6.90845">
        <ele>2248.660889</ele>
        <time>2008-04-13T08:31:52Z</time>
      </trkpt>
      <trkpt lat="44.37243" lon="6.90847">
        <ele>2250.103027</ele>
        <time>2008-04-13T08:32:10Z</time>
      </trkpt>
      <trkpt lat="44.37241" lon="6.90856">
        <ele>2252.025635</ele>
        <time>2008-04-13T08:32:24Z</time>
      </trkpt>
      <trkpt lat="44.37234" lon="6.9086">
        <ele>2253.948486</ele>
        <time>2008-04-13T08:32:40Z</time>
      </trkpt>
      <trkpt lat="44.37223" lon="6.90862">
        <ele>2255.87085</ele>
        <time>2008-04-13T08:32:56Z</time>
      </trkpt>
      <trkpt lat="44.37211" lon="6.90864">
        <ele>2257.793701</ele>
        <time>2008-04-13T08:33:15Z</time>
      </trkpt>
      <trkpt lat="44.37208" lon="6.90864">
        <ele>2257.793701</ele>
        <time>2008-04-13T08:33:39Z</time>
      </trkpt>
      <trkpt lat="44.37206" lon="6.90864">
        <ele>2259.716064</ele>
        <time>2008-04-13T08:34:03Z</time>
      </trkpt>
      <trkpt lat="44.37176" lon="6.90868">
        <ele>2260.67749</ele>
        <time>2008-04-13T08:34:33Z</time>
      </trkpt>
      <trkpt lat="44.37159" lon="6.90879">
        <ele>2264.522705</ele>
        <time>2008-04-13T08:34:57Z</time>
      </trkpt>
      <trkpt lat="44.37146" lon="6.90896">
        <ele>2269.32959</ele>
        <time>2008-04-13T08:35:23Z</time>
      </trkpt>
      <trkpt lat="44.37135" lon="6.90911">
        <ele>2273.655273</ele>
        <time>2008-04-13T08:35:48Z</time>
      </trkpt>
      <trkpt lat="44.37123" lon="6.90928">
        <ele>2279.423096</ele>
        <time>2008-04-13T08:36:15Z</time>
      </trkpt>
      <trkpt lat="44.37114" lon="6.90946">
        <ele>2281.345703</ele>
        <time>2008-04-13T08:36:39Z</time>
      </trkpt>
      <trkpt lat="44.37108" lon="6.90961">
        <ele>2284.22998</ele>
        <time>2008-04-13T08:37:02Z</time>
      </trkpt>
      <trkpt lat="44.37099" lon="6.9095">
        <ele>2290.958984</ele>
        <time>2008-04-13T08:37:25Z</time>
      </trkpt>
      <trkpt lat="44.37088" lon="6.90961">
        <ele>2294.323486</ele>
        <time>2008-04-13T08:37:45Z</time>
      </trkpt>
      <trkpt lat="44.3708" lon="6.90956">
        <ele>2297.688232</ele>
        <time>2008-04-13T08:38:05Z</time>
      </trkpt>
      <trkpt lat="44.37073" lon="6.90941">
        <ele>2300.091797</ele>
        <time>2008-04-13T08:38:26Z</time>
      </trkpt>
      <trkpt lat="44.37071" lon="6.90924">
        <ele>2304.41748</ele>
        <time>2008-04-13T08:38:49Z</time>
      </trkpt>
      <trkpt lat="44.37063" lon="6.90916">
        <ele>2305.859375</ele>
        <time>2008-04-13T08:39:11Z</time>
      </trkpt>
      <trkpt lat="44.37047" lon="6.90907">
        <ele>2306.340088</ele>
        <time>2008-04-13T08:39:39Z</time>
      </trkpt>
      <trkpt lat="44.37045" lon="6.90894">
        <ele>2310.185303</ele>
        <time>2008-04-13T08:40:00Z</time>
      </trkpt>
      <trkpt lat="44.37043" lon="6.90875">
        <ele>2312.588623</ele>
        <time>2008-04-13T08:40:23Z</time>
      </trkpt>
      <trkpt lat="44.37032" lon="6.90875">
        <ele>2314.991943</ele>
        <time>2008-04-13T08:40:44Z</time>
      </trkpt>
      <trkpt lat="44.37017" lon="6.90877">
        <ele>2316.434082</ele>
        <time>2008-04-13T08:41:07Z</time>
      </trkpt>
      <trkpt lat="44.37011" lon="6.90871">
        <ele>2317.395264</ele>
        <time>2008-04-13T08:41:28Z</time>
      </trkpt>
      <trkpt lat="44.37013" lon="6.90853">
        <ele>2321.240479</ele>
        <time>2008-04-13T08:41:54Z</time>
      </trkpt>
      <trkpt lat="44.37007" lon="6.9084">
        <ele>2325.085693</ele>
        <time>2008-04-13T08:42:16Z</time>
      </trkpt>
      <trkpt lat="44.36994" lon="6.90832">
        <ele>2328.450439</ele>
        <time>2008-04-13T08:42:40Z</time>
      </trkpt>
      <trkpt lat="44.36985" lon="6.90821">
        <ele>2333.737793</ele>
        <time>2008-04-13T08:43:04Z</time>
      </trkpt>
      <trkpt lat="44.36977" lon="6.90813">
        <ele>2338.544434</ele>
        <time>2008-04-13T08:43:28Z</time>
      </trkpt>
      <trkpt lat="44.36968" lon="6.90802">
        <ele>2340.94751</ele>
        <time>2008-04-13T08:43:51Z</time>
      </trkpt>
      <trkpt lat="44.3697" lon="6.90789">
        <ele>2343.831543</ele>
        <time>2008-04-13T08:44:13Z</time>
      </trkpt>
      <trkpt lat="44.36966" lon="6.90772">
        <ele>2347.676758</ele>
        <time>2008-04-13T08:44:38Z</time>
      </trkpt>
      <trkpt lat="44.36968" lon="6.90761">
        <ele>2350.080322</ele>
        <time>2008-04-13T08:44:54Z</time>
      </trkpt>
      <trkpt lat="44.36964" lon="6.90742">
        <ele>2353.925537</ele>
        <time>2008-04-13T08:45:17Z</time>
      </trkpt>
      <trkpt lat="44.36957" lon="6.90727">
        <ele>2357.770752</ele>
        <time>2008-04-13T08:45:39Z</time>
      </trkpt>
      <trkpt lat="44.36949" lon="6.90718">
        <ele>2358.251221</ele>
        <time>2008-04-13T08:45:56Z</time>
      </trkpt>
      <trkpt lat="44.36944" lon="6.90714">
        <ele>2360.654541</ele>
        <time>2008-04-13T08:46:11Z</time>
      </trkpt>
      <trkpt lat="44.36944" lon="6.90712">
        <ele>2356.328613</ele>
        <time>2008-04-13T08:46:53Z</time>
      </trkpt>
      <trkpt lat="44.36942" lon="6.90714">
        <ele>2356.328613</ele>
        <time>2008-04-13T08:49:14Z</time>
      </trkpt>
      <trkpt lat="44.36942" lon="6.90714">
        <ele>2361.135254</ele>
        <time>2008-04-13T08:50:06Z</time>
      </trkpt>
      <trkpt lat="44.3694" lon="6.9071">
        <ele>2361.615967</ele>
        <time>2008-04-13T08:50:26Z</time>
      </trkpt>
      <trkpt lat="44.36936" lon="6.9071">
        <ele>2362.577148</ele>
        <time>2008-04-13T08:50:38Z</time>
      </trkpt>
      <trkpt lat="44.36934" lon="6.9071">
        <ele>2362.577148</ele>
        <time>2008-04-13T08:51:03Z</time>
      </trkpt>
      <trkpt lat="44.36929" lon="6.9071">
        <ele>2364.019287</ele>
        <time>2008-04-13T08:51:41Z</time>
      </trkpt>
      <trkpt lat="44.36917" lon="6.90699">
        <ele>2364.980713</ele>
        <time>2008-04-13T08:52:01Z</time>
      </trkpt>
      <trkpt lat="44.36899" lon="6.90695">
        <ele>2365.461426</ele>
        <time>2008-04-13T08:52:23Z</time>
      </trkpt>
      <trkpt lat="44.36889" lon="6.90695">
        <ele>2364.5</ele>
        <time>2008-04-13T08:52:36Z</time>
      </trkpt>
      <trkpt lat="44.36872" lon="6.90677">
        <ele>2363.057861</ele>
        <time>2008-04-13T08:52:59Z</time>
      </trkpt>
      <trkpt lat="44.36863" lon="6.90658">
        <ele>2362.096436</ele>
        <time>2008-04-13T08:53:17Z</time>
      </trkpt>
      <trkpt lat="44.36852" lon="6.90634">
        <ele>2361.615967</ele>
        <time>2008-04-13T08:53:39Z</time>
      </trkpt>
      <trkpt lat="44.3685" lon="6.90628">
        <ele>2361.615967</ele>
        <time>2008-04-13T08:53:44Z</time>
      </trkpt>
      <trkpt lat="44.36839" lon="6.90604">
        <ele>2362.096436</ele>
        <time>2008-04-13T08:54:10Z</time>
      </trkpt>
      <trkpt lat="44.36829" lon="6.90583">
        <ele>2363.057861</ele>
        <time>2008-04-13T08:54:32Z</time>
      </trkpt>
      <trkpt lat="44.36816" lon="6.90562">
        <ele>2365.461426</ele>
        <time>2008-04-13T08:54:59Z</time>
      </trkpt>
      <trkpt lat="44.36799" lon="6.90538">
        <ele>2367.864502</ele>
        <time>2008-04-13T08:55:30Z</time>
      </trkpt>
      <trkpt lat="44.36786" lon="6.90519">
        <ele>2365.941895</ele>
        <time>2008-04-13T08:55:59Z</time>
      </trkpt>
      <trkpt lat="44.36771" lon="6.90504">
        <ele>2366.90332</ele>
        <time>2008-04-13T08:56:25Z</time>
      </trkpt>
      <trkpt lat="44.36754" lon="6.90484">
        <ele>2369.787109</ele>
        <time>2008-04-13T08:56:53Z</time>
      </trkpt>
      <trkpt lat="44.36741" lon="6.90476">
        <ele>2376.99707</ele>
        <time>2008-04-13T08:57:16Z</time>
      </trkpt>
      <trkpt lat="44.36726" lon="6.90459">
        <ele>2376.516357</ele>
        <time>2008-04-13T08:57:43Z</time>
      </trkpt>
      <trkpt lat="44.36711" lon="6.90446">
        <ele>2379.880859</ele>
        <time>2008-04-13T08:58:06Z</time>
      </trkpt>
      <trkpt lat="44.36698" lon="6.90431">
        <ele>2379.400146</ele>
        <time>2008-04-13T08:58:33Z</time>
      </trkpt>
      <trkpt lat="44.36687" lon="6.9042">
        <ele>2380.361816</ele>
        <time>2008-04-13T08:58:56Z</time>
      </trkpt>
      <trkpt lat="44.36674" lon="6.90409">
        <ele>2380.842529</ele>
        <time>2008-04-13T08:59:22Z</time>
      </trkpt>
      <trkpt lat="44.36663" lon="6.90398">
        <ele>2383.245605</ele>
        <time>2008-04-13T08:59:47Z</time>
      </trkpt>
      <trkpt lat="44.36655" lon="6.9039">
        <ele>2386.610107</ele>
        <time>2008-04-13T09:00:09Z</time>
      </trkpt>
      <trkpt lat="44.36646" lon="6.90381">
        <ele>2389.974854</ele>
        <time>2008-04-13T09:00:32Z</time>
      </trkpt>
      <trkpt lat="44.36633" lon="6.90375">
        <ele>2394.300537</ele>
        <time>2008-04-13T09:00:56Z</time>
      </trkpt>
      <trkpt lat="44.36623" lon="6.90366">
        <ele>2396.223633</ele>
        <time>2008-04-13T09:01:18Z</time>
      </trkpt>
      <trkpt lat="44.3662" lon="6.90349">
        <ele>2397.184814</ele>
        <time>2008-04-13T09:01:40Z</time>
      </trkpt>
      <trkpt lat="44.36614" lon="6.90334">
        <ele>2399.107422</ele>
        <time>2008-04-13T09:02:03Z</time>
      </trkpt>
      <trkpt lat="44.36601" lon="6.9033">
        <ele>2404.394531</ele>
        <time>2008-04-13T09:02:26Z</time>
      </trkpt>
      <trkpt lat="44.3659" lon="6.90323">
        <ele>2407.278564</ele>
        <time>2008-04-13T09:02:50Z</time>
      </trkpt>
      <trkpt lat="44.36578" lon="6.90319">
        <ele>2408.720459</ele>
        <time>2008-04-13T09:03:14Z</time>
      </trkpt>
      <trkpt lat="44.36567" lon="6.90313">
        <ele>2410.162354</ele>
        <time>2008-04-13T09:03:39Z</time>
      </trkpt>
      <trkpt lat="44.3656" lon="6.903">
        <ele>2414.007813</ele>
        <time>2008-04-13T09:04:03Z</time>
      </trkpt>
      <trkpt lat="44.36563" lon="6.9028">
        <ele>2414.007813</ele>
        <time>2008-04-13T09:04:29Z</time>
      </trkpt>
      <trkpt lat="44.36552" lon="6.90274">
        <ele>2420.737061</ele>
        <time>2008-04-13T09:04:50Z</time>
      </trkpt>
      <trkpt lat="44.36539" lon="6.90265">
        <ele>2424.582275</ele>
        <time>2008-04-13T09:05:12Z</time>
      </trkpt>
      <trkpt lat="44.36528" lon="6.90255">
        <ele>2428.908203</ele>
        <time>2008-04-13T09:05:36Z</time>
      </trkpt>
      <trkpt lat="44.36517" lon="6.90244">
        <ele>2429.388916</ele>
        <time>2008-04-13T09:06:01Z</time>
      </trkpt>
      <trkpt lat="44.36507" lon="6.90233">
        <ele>2431.792236</ele>
        <time>2008-04-13T09:06:24Z</time>
      </trkpt>
      <trkpt lat="44.365" lon="6.9022">
        <ele>2433.714844</ele>
        <time>2008-04-13T09:06:44Z</time>
      </trkpt>
      <trkpt lat="44.36496" lon="6.90207">
        <ele>2435.637451</ele>
        <time>2008-04-13T09:07:05Z</time>
      </trkpt>
      <trkpt lat="44.36492" lon="6.9019">
        <ele>2437.560059</ele>
        <time>2008-04-13T09:07:28Z</time>
      </trkpt>
      <trkpt lat="44.3649" lon="6.90173">
        <ele>2442.366699</ele>
        <time>2008-04-13T09:07:52Z</time>
      </trkpt>
      <trkpt lat="44.36485" lon="6.9016">
        <ele>2444.77002</ele>
        <time>2008-04-13T09:08:13Z</time>
      </trkpt>
      <trkpt lat="44.36483" lon="6.90141">
        <ele>2447.17334</ele>
        <time>2008-04-13T09:08:38Z</time>
      </trkpt>
      <trkpt lat="44.36479" lon="6.90124">
        <ele>2449.57666</ele>
        <time>2008-04-13T09:09:01Z</time>
      </trkpt>
      <trkpt lat="44.36479" lon="6.901">
        <ele>2448.615234</ele>
        <time>2008-04-13T09:09:27Z</time>
      </trkpt>
      <trkpt lat="44.36475" lon="6.90081">
        <ele>2452.460449</ele>
        <time>2008-04-13T09:09:52Z</time>
      </trkpt>
      <trkpt lat="44.3647" lon="6.90068">
        <ele>2456.305664</ele>
        <time>2008-04-13T09:10:15Z</time>
      </trkpt>
      <trkpt lat="44.36462" lon="6.90053">
        <ele>2461.112549</ele>
        <time>2008-04-13T09:10:40Z</time>
      </trkpt>
      <trkpt lat="44.36453" lon="6.90034">
        <ele>2466.399658</ele>
        <time>2008-04-13T09:11:08Z</time>
      </trkpt>
      <trkpt lat="44.36449" lon="6.90017">
        <ele>2469.283691</ele>
        <time>2008-04-13T09:11:32Z</time>
      </trkpt>
      <trkpt lat="44.36445" lon="6.90001">
        <ele>2471.686768</ele>
        <time>2008-04-13T09:11:59Z</time>
      </trkpt>
      <trkpt lat="44.36453" lon="6.89993">
        <ele>2472.648193</ele>
        <time>2008-04-13T09:12:21Z</time>
      </trkpt>
      <trkpt lat="44.36447" lon="6.89976">
        <ele>2476.012939</ele>
        <time>2008-04-13T09:12:45Z</time>
      </trkpt>
      <trkpt lat="44.36447" lon="6.89965">
        <ele>2479.858154</ele>
        <time>2008-04-13T09:13:08Z</time>
      </trkpt>
      <trkpt lat="44.36447" lon="6.89954">
        <ele>2481.780762</ele>
        <time>2008-04-13T09:13:26Z</time>
      </trkpt>
      <trkpt lat="44.36442" lon="6.89944">
        <ele>2484.664795</ele>
        <time>2008-04-13T09:13:48Z</time>
      </trkpt>
      <trkpt lat="44.36438" lon="6.89931">
        <ele>2488.990479</ele>
        <time>2008-04-13T09:14:11Z</time>
      </trkpt>
      <trkpt lat="44.36442" lon="6.89924">
        <ele>2488.51001</ele>
        <time>2008-04-13T09:14:27Z</time>
      </trkpt>
      <trkpt lat="44.36445" lon="6.8992">
        <ele>2491.393799</ele>
        <time>2008-04-13T09:14:44Z</time>
      </trkpt>
      <trkpt lat="44.36442" lon="6.89909">
        <ele>2491.874512</ele>
        <time>2008-04-13T09:15:03Z</time>
      </trkpt>
      <trkpt lat="44.36438" lon="6.89898">
        <ele>2495.719971</ele>
        <time>2008-04-13T09:15:23Z</time>
      </trkpt>
      <trkpt lat="44.36434" lon="6.8989">
        <ele>2499.084473</ele>
        <time>2008-04-13T09:15:41Z</time>
      </trkpt>
      <trkpt lat="44.3644" lon="6.89888">
        <ele>2502.448975</ele>
        <time>2008-04-13T09:15:59Z</time>
      </trkpt>
      <trkpt lat="44.36447" lon="6.89886">
        <ele>2502.929688</ele>
        <time>2008-04-13T09:16:15Z</time>
      </trkpt>
      <trkpt lat="44.36449" lon="6.89879">
        <ele>2505.333008</ele>
        <time>2008-04-13T09:16:29Z</time>
      </trkpt>
      <trkpt lat="44.36447" lon="6.89871">
        <ele>2508.217041</ele>
        <time>2008-04-13T09:16:45Z</time>
      </trkpt>
      <trkpt lat="44.36447" lon="6.89858">
        <ele>2510.139648</ele>
        <time>2008-04-13T09:17:07Z</time>
      </trkpt>
      <trkpt lat="44.36455" lon="6.89856">
        <ele>2513.50415</ele>
        <time>2008-04-13T09:17:27Z</time>
      </trkpt>
      <trkpt lat="44.36457" lon="6.89845">
        <ele>2515.427002</ele>
        <time>2008-04-13T09:17:46Z</time>
      </trkpt>
      <trkpt lat="44.36462" lon="6.89843">
        <ele>2515.907471</ele>
        <time>2008-04-13T09:18:03Z</time>
      </trkpt>
      <trkpt lat="44.36468" lon="6.89841">
        <ele>2516.868896</ele>
        <time>2008-04-13T09:18:19Z</time>
      </trkpt>
      <trkpt lat="44.3647" lon="6.89841">
        <ele>2518.310791</ele>
        <time>2008-04-13T09:18:36Z</time>
      </trkpt>
      <trkpt lat="44.3647" lon="6.89834">
        <ele>2521.675293</ele>
        <time>2008-04-13T09:18:52Z</time>
      </trkpt>
      <trkpt lat="44.36466" lon="6.89823">
        <ele>2524.078857</ele>
        <time>2008-04-13T09:19:09Z</time>
      </trkpt>
      <trkpt lat="44.3646" lon="6.89815">
        <ele>2527.443359</ele>
        <time>2008-04-13T09:19:26Z</time>
      </trkpt>
      <trkpt lat="44.36455" lon="6.89802">
        <ele>2532.25</ele>
        <time>2008-04-13T09:19:46Z</time>
      </trkpt>
      <trkpt lat="44.36455" lon="6.89785">
        <ele>2532.25</ele>
        <time>2008-04-13T09:20:05Z</time>
      </trkpt>
      <trkpt lat="44.36457" lon="6.8977">
        <ele>2532.25</ele>
        <time>2008-04-13T09:20:23Z</time>
      </trkpt>
      <trkpt lat="44.36462" lon="6.89744">
        <ele>2528.885254</ele>
        <time>2008-04-13T09:20:41Z</time>
      </trkpt>
      <trkpt lat="44.36457" lon="6.89725">
        <ele>2530.808105</ele>
        <time>2008-04-13T09:21:00Z</time>
      </trkpt>
      <trkpt lat="44.36453" lon="6.89712">
        <ele>2532.25</ele>
        <time>2008-04-13T09:21:17Z</time>
      </trkpt>
      <trkpt lat="44.36451" lon="6.89701">
        <ele>2533.211182</ele>
        <time>2008-04-13T09:21:32Z</time>
      </trkpt>
      <trkpt lat="44.36447" lon="6.89688">
        <ele>2532.730469</ele>
        <time>2008-04-13T09:21:49Z</time>
      </trkpt>
      <trkpt lat="44.36442" lon="6.8968">
        <ele>2533.691895</ele>
        <time>2008-04-13T09:22:03Z</time>
      </trkpt>
      <trkpt lat="44.36438" lon="6.89669">
        <ele>2535.614502</ele>
        <time>2008-04-13T09:22:21Z</time>
      </trkpt>
      <trkpt lat="44.36432" lon="6.8966">
        <ele>2537.537109</ele>
        <time>2008-04-13T09:22:37Z</time>
      </trkpt>
      <trkpt lat="44.36425" lon="6.89654">
        <ele>2540.421143</ele>
        <time>2008-04-13T09:22:55Z</time>
      </trkpt>
      <trkpt lat="44.36419" lon="6.89647">
        <ele>2542.343994</ele>
        <time>2008-04-13T09:23:11Z</time>
      </trkpt>
      <trkpt lat="44.36414" lon="6.89639">
        <ele>2543.785889</ele>
        <time>2008-04-13T09:23:27Z</time>
      </trkpt>
      <trkpt lat="44.3641" lon="6.8963">
        <ele>2547.631104</ele>
        <time>2008-04-13T09:23:42Z</time>
      </trkpt>
      <trkpt lat="44.36408" lon="6.89617">
        <ele>2547.150391</ele>
        <time>2008-04-13T09:23:58Z</time>
      </trkpt>
      <trkpt lat="44.36406" lon="6.89605">
        <ele>2549.072998</ele>
        <time>2008-04-13T09:24:14Z</time>
      </trkpt>
      <trkpt lat="44.36404" lon="6.89598">
        <ele>2552.918213</ele>
        <time>2008-04-13T09:24:30Z</time>
      </trkpt>
      <trkpt lat="44.36402" lon="6.8959">
        <ele>2554.84082</ele>
        <time>2008-04-13T09:24:43Z</time>
      </trkpt>
      <trkpt lat="44.36404" lon="6.89574">
        <ele>2552.918213</ele>
        <time>2008-04-13T09:25:00Z</time>
      </trkpt>
      <trkpt lat="44.36402" lon="6.89562">
        <ele>2555.321533</ele>
        <time>2008-04-13T09:25:16Z</time>
      </trkpt>
      <trkpt lat="44.36402" lon="6.89549">
        <ele>2557.244385</ele>
        <time>2008-04-13T09:25:33Z</time>
      </trkpt>
      <trkpt lat="44.36402" lon="6.89536">
        <ele>2558.686279</ele>
        <time>2008-04-13T09:25:48Z</time>
      </trkpt>
      <trkpt lat="44.36402" lon="6.89523">
        <ele>2559.166992</ele>
        <time>2008-04-13T09:26:05Z</time>
      </trkpt>
      <trkpt lat="44.36404" lon="6.89512">
        <ele>2560.128174</ele>
        <time>2008-04-13T09:26:21Z</time>
      </trkpt>
      <trkpt lat="44.36404" lon="6.89502">
        <ele>2562.531494</ele>
        <time>2008-04-13T09:26:38Z</time>
      </trkpt>
      <trkpt lat="44.36406" lon="6.89493">
        <ele>2565.415527</ele>
        <time>2008-04-13T09:26:56Z</time>
      </trkpt>
      <trkpt lat="44.36406" lon="6.89482">
        <ele>2566.857422</ele>
        <time>2008-04-13T09:27:14Z</time>
      </trkpt>
      <trkpt lat="44.36406" lon="6.89471">
        <ele>2568.780029</ele>
        <time>2008-04-13T09:27:33Z</time>
      </trkpt>
      <trkpt lat="44.36408" lon="6.89461">
        <ele>2570.702637</ele>
        <time>2008-04-13T09:27:49Z</time>
      </trkpt>
      <trkpt lat="44.36408" lon="6.8945">
        <ele>2572.144775</ele>
        <time>2008-04-13T09:28:06Z</time>
      </trkpt>
      <trkpt lat="44.36408" lon="6.89439">
        <ele>2574.067383</ele>
        <time>2008-04-13T09:28:24Z</time>
      </trkpt>
      <trkpt lat="44.36408" lon="6.89429">
        <ele>2576.951416</ele>
        <time>2008-04-13T09:28:43Z</time>
      </trkpt>
      <trkpt lat="44.36412" lon="6.8942">
        <ele>2578.873779</ele>
        <time>2008-04-13T09:29:00Z</time>
      </trkpt>
      <trkpt lat="44.36417" lon="6.8942">
        <ele>2580.796631</ele>
        <time>2008-04-13T09:29:16Z</time>
      </trkpt>
      <trkpt lat="44.36421" lon="6.89424">
        <ele>2581.2771</ele>
        <time>2008-04-13T09:29:30Z</time>
      </trkpt>
      <trkpt lat="44.36427" lon="6.89426">
        <ele>2579.835205</ele>
        <time>2008-04-13T09:29:46Z</time>
      </trkpt>
      <trkpt lat="44.36427" lon="6.8942">
        <ele>2587.044922</ele>
        <time>2008-04-13T09:29:59Z</time>
      </trkpt>
      <trkpt lat="44.36425" lon="6.89411">
        <ele>2594.735596</ele>
        <time>2008-04-13T09:30:12Z</time>
      </trkpt>
      <trkpt lat="44.36423" lon="6.89405">
        <ele>2599.541992</ele>
        <time>2008-04-13T09:30:29Z</time>
      </trkpt>
      <trkpt lat="44.36427" lon="6.89403">
        <ele>2599.061523</ele>
        <time>2008-04-13T09:30:44Z</time>
      </trkpt>
      <trkpt lat="44.36449" lon="6.89381">
        <ele>2574.067383</ele>
        <time>2008-04-13T09:31:05Z</time>
      </trkpt>
      <trkpt lat="44.36447" lon="6.89384">
        <ele>2579.835205</ele>
        <time>2008-04-13T09:31:18Z</time>
      </trkpt>
      <trkpt lat="44.36445" lon="6.89381">
        <ele>2582.718994</ele>
        <time>2008-04-13T09:31:32Z</time>
      </trkpt>
      <trkpt lat="44.36447" lon="6.89384">
        <ele>2583.68042</ele>
        <time>2008-04-13T09:31:41Z</time>
      </trkpt>
      <trkpt lat="44.36453" lon="6.89386">
        <ele>2584.161133</ele>
        <time>2008-04-13T09:31:55Z</time>
      </trkpt>
      <trkpt lat="44.36451" lon="6.89381">
        <ele>2588.006592</ele>
        <time>2008-04-13T09:32:06Z</time>
      </trkpt>
      <trkpt lat="44.36447" lon="6.89377">
        <ele>2594.735596</ele>
        <time>2008-04-13T09:32:19Z</time>
      </trkpt>
      <trkpt lat="44.3644" lon="6.89368">
        <ele>2600.503418</ele>
        <time>2008-04-13T09:32:34Z</time>
      </trkpt>
      <trkpt lat="44.36436" lon="6.8936">
        <ele>2607.713379</ele>
        <time>2008-04-13T09:32:48Z</time>
      </trkpt>
      <trkpt lat="44.36434" lon="6.89353">
        <ele>2611.077637</ele>
        <time>2008-04-13T09:33:07Z</time>
      </trkpt>
      <trkpt lat="44.36434" lon="6.89353">
        <ele>2612.52002</ele>
        <time>2008-04-13T09:33:28Z</time>
      </trkpt>
      <trkpt lat="44.36434" lon="6.89353">
        <ele>2613.481445</ele>
        <time>2008-04-13T09:33:57Z</time>
      </trkpt>
      <trkpt lat="44.36432" lon="6.89353">
        <ele>2612.039551</ele>
        <time>2008-04-13T09:35:00Z</time>
      </trkpt>
      <trkpt lat="44.3643" lon="6.89347">
        <ele>2612.52002</ele>
        <time>2008-04-13T09:35:14Z</time>
      </trkpt>
      <trkpt lat="44.36434" lon="6.89338">
        <ele>2608.674805</ele>
        <time>2008-04-13T09:41:10Z</time>
      </trkpt>
      <trkpt lat="44.3643" lon="6.89332">
        <ele>2612.039551</ele>
        <time>2008-04-13T09:42:19Z</time>
      </trkpt>
      <trkpt lat="44.36432" lon="6.89319">
        <ele>2613.481445</ele>
        <time>2008-04-13T09:42:35Z</time>
      </trkpt>
      <trkpt lat="44.36434" lon="6.89306">
        <ele>2615.884766</ele>
        <time>2008-04-13T09:42:50Z</time>
      </trkpt>
      <trkpt lat="44.36436" lon="6.89291">
        <ele>2618.768555</ele>
        <time>2008-04-13T09:43:10Z</time>
      </trkpt>
      <trkpt lat="44.36438" lon="6.89278">
        <ele>2621.171875</ele>
        <time>2008-04-13T09:43:29Z</time>
      </trkpt>
      <trkpt lat="44.36438" lon="6.89265">
        <ele>2623.094727</ele>
        <time>2008-04-13T09:43:45Z</time>
      </trkpt>
      <trkpt lat="44.3644" lon="6.89261">
        <ele>2624.536621</ele>
        <time>2008-04-13T09:43:59Z</time>
      </trkpt>
      <trkpt lat="44.3644" lon="6.89242">
        <ele>2625.498047</ele>
        <time>2008-04-13T09:44:16Z</time>
      </trkpt>
      <trkpt lat="44.3644" lon="6.89223">
        <ele>2625.498047</ele>
        <time>2008-04-13T09:44:38Z</time>
      </trkpt>
      <trkpt lat="44.36438" lon="6.89208">
        <ele>2627.42041</ele>
        <time>2008-04-13T09:44:56Z</time>
      </trkpt>
      <trkpt lat="44.36438" lon="6.89195">
        <ele>2627.900879</ele>
        <time>2008-04-13T09:45:13Z</time>
      </trkpt>
      <trkpt lat="44.3644" lon="6.89182">
        <ele>2627.900879</ele>
        <time>2008-04-13T09:45:31Z</time>
      </trkpt>
      <trkpt lat="44.3644" lon="6.89173">
        <ele>2627.900879</ele>
        <time>2008-04-13T09:45:47Z</time>
      </trkpt>
      <trkpt lat="44.3644" lon="6.89156">
        <ele>2627.900879</ele>
        <time>2008-04-13T09:46:04Z</time>
      </trkpt>
      <trkpt lat="44.36442" lon="6.89143">
        <ele>2627.900879</ele>
        <time>2008-04-13T09:46:20Z</time>
      </trkpt>
      <trkpt lat="44.3644" lon="6.89128">
        <ele>2627.42041</ele>
        <time>2008-04-13T09:46:38Z</time>
      </trkpt>
      <trkpt lat="44.3644" lon="6.89117">
        <ele>2628.381836</ele>
        <time>2008-04-13T09:46:56Z</time>
      </trkpt>
      <trkpt lat="44.36438" lon="6.89109">
        <ele>2627.900879</ele>
        <time>2008-04-13T09:47:11Z</time>
      </trkpt>
      <trkpt lat="44.36438" lon="6.891">
        <ele>2628.862305</ele>
        <time>2008-04-13T09:47:25Z</time>
      </trkpt>
      <trkpt lat="44.36438" lon="6.8909">
        <ele>2628.862305</ele>
        <time>2008-04-13T09:47:40Z</time>
      </trkpt>
      <trkpt lat="44.36438" lon="6.89085">
        <ele>2628.381836</ele>
        <time>2008-04-13T09:47:54Z</time>
      </trkpt>
      <trkpt lat="44.36438" lon="6.89077">
        <ele>2628.381836</ele>
        <time>2008-04-13T09:48:08Z</time>
      </trkpt>
      <trkpt lat="44.36438" lon="6.89066">
        <ele>2628.381836</ele>
        <time>2008-04-13T09:48:24Z</time>
      </trkpt>
      <trkpt lat="44.36436" lon="6.89055">
        <ele>2629.82373</ele>
        <time>2008-04-13T09:48:45Z</time>
      </trkpt>
      <trkpt lat="44.36436" lon="6.89047">
        <ele>2629.82373</ele>
        <time>2008-04-13T09:49:01Z</time>
      </trkpt>
      <trkpt lat="44.36436" lon="6.89038">
        <ele>2629.82373</ele>
        <time>2008-04-13T09:49:14Z</time>
      </trkpt>
      <trkpt lat="44.36436" lon="6.89032">
        <ele>2629.82373</ele>
        <time>2008-04-13T09:49:27Z</time>
      </trkpt>
      <trkpt lat="44.36434" lon="6.89025">
        <ele>2630.304199</ele>
        <time>2008-04-13T09:49:41Z</time>
      </trkpt>
      <trkpt lat="44.36434" lon="6.89019">
        <ele>2630.304199</ele>
        <time>2008-04-13T09:49:54Z</time>
      </trkpt>
      <trkpt lat="44.3643" lon="6.89012">
        <ele>2630.785156</ele>
        <time>2008-04-13T09:50:11Z</time>
      </trkpt>
      <trkpt lat="44.36425" lon="6.89006">
        <ele>2631.746582</ele>
        <time>2008-04-13T09:50:28Z</time>
      </trkpt>
      <trkpt lat="44.36423" lon="6.89002">
        <ele>2631.746582</ele>
        <time>2008-04-13T09:50:42Z</time>
      </trkpt>
      <trkpt lat="44.36421" lon="6.88995">
        <ele>2632.70752</ele>
        <time>2008-04-13T09:50:59Z</time>
      </trkpt>
      <trkpt lat="44.36421" lon="6.88987">
        <ele>2633.188477</ele>
        <time>2008-04-13T09:51:11Z</time>
      </trkpt>
      <trkpt lat="44.36421" lon="6.8898">
        <ele>2633.668945</ele>
        <time>2008-04-13T09:51:27Z</time>
      </trkpt>
      <trkpt lat="44.36419" lon="6.88972">
        <ele>2634.149414</ele>
        <time>2008-04-13T09:51:41Z</time>
      </trkpt>
      <trkpt lat="44.36419" lon="6.88965">
        <ele>2634.630371</ele>
        <time>2008-04-13T09:51:56Z</time>
      </trkpt>
      <trkpt lat="44.36419" lon="6.88961">
        <ele>2634.630371</ele>
        <time>2008-04-13T09:52:08Z</time>
      </trkpt>
      <trkpt lat="44.36414" lon="6.88954">
        <ele>2640.878906</ele>
        <time>2008-04-13T09:52:22Z</time>
      </trkpt>
      <trkpt lat="44.36406" lon="6.88941">
        <ele>2655.779297</ele>
        <time>2008-04-13T09:52:41Z</time>
      </trkpt>
      <trkpt lat="44.36399" lon="6.88933">
        <ele>2664.431152</ele>
        <time>2008-04-13T09:52:57Z</time>
      </trkpt>
      <trkpt lat="44.36397" lon="6.88926">
        <ele>2669.237793</ele>
        <time>2008-04-13T09:53:12Z</time>
      </trkpt>
      <trkpt lat="44.36397" lon="6.88922">
        <ele>2671.641113</ele>
        <time>2008-04-13T09:53:23Z</time>
      </trkpt>
      <trkpt lat="44.36395" lon="6.88916">
        <ele>2673.563477</ele>
        <time>2008-04-13T09:53:38Z</time>
      </trkpt>
      <trkpt lat="44.36395" lon="6.88909">
        <ele>2676.928711</ele>
        <time>2008-04-13T09:53:57Z</time>
      </trkpt>
      <trkpt lat="44.36393" lon="6.88903">
        <ele>2679.8125</ele>
        <time>2008-04-13T09:54:12Z</time>
      </trkpt>
      <trkpt lat="44.36389" lon="6.88892">
        <ele>2684.619141</ele>
        <time>2008-04-13T09:54:34Z</time>
      </trkpt>
      <trkpt lat="44.36387" lon="6.88892">
        <ele>2687.50293</ele>
        <time>2008-04-13T09:54:57Z</time>
      </trkpt>
      <trkpt lat="44.36389" lon="6.8889">
        <ele>2683.657715</ele>
        <time>2008-04-13T09:57:18Z</time>
      </trkpt>
      <trkpt lat="44.36382" lon="6.88905">
        <ele>2702.883789</ele>
        <time>2008-04-13T09:58:04Z</time>
      </trkpt>
      <trkpt lat="44.36391" lon="6.88894">
        <ele>2672.121582</ele>
        <time>2008-04-13T09:59:19Z</time>
      </trkpt>
      <trkpt lat="44.36387" lon="6.88886">
        <ele>2681.734863</ele>
        <time>2008-04-13T10:00:01Z</time>
      </trkpt>
      <trkpt lat="44.36384" lon="6.88875">
        <ele>2683.657715</ele>
        <time>2008-04-13T10:00:19Z</time>
      </trkpt>
      <trkpt lat="44.36378" lon="6.88869">
        <ele>2687.983398</ele>
        <time>2008-04-13T10:00:35Z</time>
      </trkpt>
      <trkpt lat="44.36374" lon="6.88864">
        <ele>2691.348145</ele>
        <time>2008-04-13T10:00:49Z</time>
      </trkpt>
      <trkpt lat="44.36367" lon="6.88862">
        <ele>2693.751465</ele>
        <time>2008-04-13T10:01:04Z</time>
      </trkpt>
      <trkpt lat="44.36367" lon="6.88858">
        <ele>2697.115723</ele>
        <time>2008-04-13T10:01:20Z</time>
      </trkpt>
      <trkpt lat="44.36372" lon="6.88851">
        <ele>2700.480469</ele>
        <time>2008-04-13T10:01:38Z</time>
      </trkpt>
      <trkpt lat="44.36376" lon="6.88845">
        <ele>2701.922363</ele>
        <time>2008-04-13T10:01:53Z</time>
      </trkpt>
      <trkpt lat="44.3638" lon="6.88838">
        <ele>2704.325684</ele>
        <time>2008-04-13T10:02:10Z</time>
      </trkpt>
      <trkpt lat="44.3638" lon="6.88834">
        <ele>2706.729004</ele>
        <time>2008-04-13T10:02:26Z</time>
      </trkpt>
      <trkpt lat="44.36376" lon="6.88828">
        <ele>2707.209473</ele>
        <time>2008-04-13T10:02:42Z</time>
      </trkpt>
      <trkpt lat="44.36369" lon="6.88826">
        <ele>2710.094238</ele>
        <time>2008-04-13T10:02:57Z</time>
      </trkpt>
      <trkpt lat="44.36365" lon="6.88823">
        <ele>2711.055176</ele>
        <time>2008-04-13T10:03:10Z</time>
      </trkpt>
      <trkpt lat="44.36367" lon="6.88821">
        <ele>2711.055176</ele>
        <time>2008-04-13T10:03:24Z</time>
      </trkpt>
      <trkpt lat="44.36374" lon="6.88817">
        <ele>2711.055176</ele>
        <time>2008-04-13T10:03:40Z</time>
      </trkpt>
      <trkpt lat="44.36384" lon="6.88815">
        <ele>2711.055176</ele>
        <time>2008-04-13T10:03:59Z</time>
      </trkpt>
      <trkpt lat="44.36391" lon="6.88811">
        <ele>2711.055176</ele>
        <time>2008-04-13T10:04:17Z</time>
      </trkpt>
      <trkpt lat="44.36393" lon="6.88808">
        <ele>2711.055176</ele>
        <time>2008-04-13T10:04:33Z</time>
      </trkpt>
      <trkpt lat="44.36391" lon="6.88804">
        <ele>2712.49707</ele>
        <time>2008-04-13T10:04:46Z</time>
      </trkpt>
      <trkpt lat="44.36384" lon="6.888">
        <ele>2713.458496</ele>
        <time>2008-04-13T10:05:02Z</time>
      </trkpt>
      <trkpt lat="44.36389" lon="6.88798">
        <ele>2714.900391</ele>
        <time>2008-04-13T10:05:16Z</time>
      </trkpt>
      <trkpt lat="44.36393" lon="6.88796">
        <ele>2714.900391</ele>
        <time>2008-04-13T10:05:30Z</time>
      </trkpt>
      <trkpt lat="44.36397" lon="6.88796">
        <ele>2714.900391</ele>
        <time>2008-04-13T10:05:45Z</time>
      </trkpt>
      <trkpt lat="44.36395" lon="6.88796">
        <ele>2714.900391</ele>
        <time>2008-04-13T10:06:00Z</time>
      </trkpt>
      <trkpt lat="44.36391" lon="6.88791">
        <ele>2714.900391</ele>
        <time>2008-04-13T10:06:15Z</time>
      </trkpt>
      <trkpt lat="44.36389" lon="6.88787">
        <ele>2714.900391</ele>
        <time>2008-04-13T10:06:29Z</time>
      </trkpt>
      <trkpt lat="44.36387" lon="6.88783">
        <ele>2714.900391</ele>
        <time>2008-04-13T10:06:42Z</time>
      </trkpt>
      <trkpt lat="44.36391" lon="6.88783">
        <ele>2714.900391</ele>
        <time>2008-04-13T10:06:54Z</time>
      </trkpt>
      <trkpt lat="44.36395" lon="6.88778">
        <ele>2720.1875</ele>
        <time>2008-04-13T10:07:11Z</time>
      </trkpt>
      <trkpt lat="44.36391" lon="6.88774">
        <ele>2726.436035</ele>
        <time>2008-04-13T10:07:26Z</time>
      </trkpt>
      <trkpt lat="44.36384" lon="6.88768">
        <ele>2731.242676</ele>
        <time>2008-04-13T10:07:40Z</time>
      </trkpt>
      <trkpt lat="44.3638" lon="6.88763">
        <ele>2734.607422</ele>
        <time>2008-04-13T10:07:54Z</time>
      </trkpt>
      <trkpt lat="44.36374" lon="6.88761">
        <ele>2737.97168</ele>
        <time>2008-04-13T10:08:12Z</time>
      </trkpt>
      <trkpt lat="44.36374" lon="6.88759">
        <ele>2740.375488</ele>
        <time>2008-04-13T10:08:23Z</time>
      </trkpt>
      <trkpt lat="44.3638" lon="6.88753">
        <ele>2744.220703</ele>
        <time>2008-04-13T10:08:39Z</time>
      </trkpt>
      <trkpt lat="44.36382" lon="6.88753">
        <ele>2746.624023</ele>
        <time>2008-04-13T10:08:53Z</time>
      </trkpt>
      <trkpt lat="44.36378" lon="6.88748">
        <ele>2747.10498</ele>
        <time>2008-04-13T10:09:06Z</time>
      </trkpt>
      <trkpt lat="44.36378" lon="6.88744">
        <ele>2748.065918</ele>
        <time>2008-04-13T10:09:28Z</time>
      </trkpt>
      <trkpt lat="44.36382" lon="6.88742">
        <ele>2750.949707</ele>
        <time>2008-04-13T10:09:42Z</time>
      </trkpt>
      <trkpt lat="44.36387" lon="6.88742">
        <ele>2752.872559</ele>
        <time>2008-04-13T10:09:57Z</time>
      </trkpt>
      <trkpt lat="44.36384" lon="6.88738">
        <ele>2753.833984</ele>
        <time>2008-04-13T10:10:08Z</time>
      </trkpt>
      <trkpt lat="44.3638" lon="6.88733">
        <ele>2754.314453</ele>
        <time>2008-04-13T10:10:21Z</time>
      </trkpt>
      <trkpt lat="44.36376" lon="6.88731">
        <ele>2755.756348</ele>
        <time>2008-04-13T10:10:37Z</time>
      </trkpt>
      <trkpt lat="44.36378" lon="6.88731">
        <ele>2757.679199</ele>
        <time>2008-04-13T10:10:52Z</time>
      </trkpt>
      <trkpt lat="44.3638" lon="6.88731">
        <ele>2759.121094</ele>
        <time>2008-04-13T10:11:13Z</time>
      </trkpt>
      <trkpt lat="44.36382" lon="6.88731">
        <ele>2760.08252</ele>
        <time>2008-04-13T10:11:31Z</time>
      </trkpt>
      <trkpt lat="44.36384" lon="6.88729">
        <ele>2761.043457</ele>
        <time>2008-04-13T10:12:10Z</time>
      </trkpt>
      <trkpt lat="44.36382" lon="6.88729">
        <ele>2763.446777</ele>
        <time>2008-04-13T10:12:25Z</time>
      </trkpt>
      <trkpt lat="44.36376" lon="6.88725">
        <ele>2764.408203</ele>
        <time>2008-04-13T10:12:39Z</time>
      </trkpt>
      <trkpt lat="44.36372" lon="6.8872">
        <ele>2765.850098</ele>
        <time>2008-04-13T10:12:54Z</time>
      </trkpt>
      <trkpt lat="44.36369" lon="6.88718">
        <ele>2766.811523</ele>
        <time>2008-04-13T10:13:06Z</time>
      </trkpt>
      <trkpt lat="44.36363" lon="6.88716">
        <ele>2768.253418</ele>
        <time>2008-04-13T10:13:24Z</time>
      </trkpt>
      <trkpt lat="44.36359" lon="6.88714">
        <ele>2769.695313</ele>
        <time>2008-04-13T10:13:38Z</time>
      </trkpt>
      <trkpt lat="44.36357" lon="6.8871">
        <ele>2772.099121</ele>
        <time>2008-04-13T10:14:05Z</time>
      </trkpt>
      <trkpt lat="44.36352" lon="6.8871">
        <ele>2772.57959</ele>
        <time>2008-04-13T10:14:17Z</time>
      </trkpt>
      <trkpt lat="44.36354" lon="6.8871">
        <ele>2773.060547</ele>
        <time>2008-04-13T10:14:33Z</time>
      </trkpt>
      <trkpt lat="44.36354" lon="6.88712">
        <ele>2773.541016</ele>
        <time>2008-04-13T10:15:00Z</time>
      </trkpt>
      <trkpt lat="44.36357" lon="6.88708">
        <ele>2772.099121</ele>
        <time>2008-04-13T10:15:57Z</time>
      </trkpt>
      <trkpt lat="44.36359" lon="6.88705">
        <ele>2774.021484</ele>
        <time>2008-04-13T10:16:11Z</time>
      </trkpt>
      <trkpt lat="44.36357" lon="6.88703">
        <ele>2775.944336</ele>
        <time>2008-04-13T10:16:25Z</time>
      </trkpt>
      <trkpt lat="44.36352" lon="6.88703">
        <ele>2776.424805</ele>
        <time>2008-04-13T10:16:42Z</time>
      </trkpt>
      <trkpt lat="44.36348" lon="6.88703">
        <ele>2777.38623</ele>
        <time>2008-04-13T10:16:59Z</time>
      </trkpt>
      <trkpt lat="44.36346" lon="6.8871">
        <ele>2777.867188</ele>
        <time>2008-04-13T10:17:19Z</time>
      </trkpt>
      <trkpt lat="44.36344" lon="6.88708">
        <ele>2779.309082</ele>
        <time>2008-04-13T10:18:08Z</time>
      </trkpt>
      <trkpt lat="44.3633" lon="6.88718">
        <ele>2760.6</ele>
      </trkpt>
      <trkpt lat="44.36319" lon="6.88723">
        <ele>2761.8</ele>
      </trkpt>
      <trkpt lat="44.36309" lon="6.88733">
        <ele>2760</ele>
      </trkpt>
      <trkpt lat="44.36295" lon="6.88744">
        <ele>2766.2</ele>
      </trkpt>
      <trkpt lat="44.36284" lon="6.88746">
        <ele>2773.4</ele>
      </trkpt>
      <trkpt lat="44.36265" lon="6.88749">
        <ele>2786.7</ele>
      </trkpt>
      <trkpt lat="44.36254" lon="6.88744">
        <ele>2793.1</ele>
      </trkpt>
      <trkpt lat="44.36238" lon="6.88743">
        <ele>2803.1</ele>
      </trkpt>
      <trkpt lat="44.36224" lon="6.88748">
        <ele>2813.9</ele>
      </trkpt>
      <trkpt lat="44.36215" lon="6.88743">
        <ele>2817.3</ele>
      </trkpt>
      <trkpt lat="44.36206" lon="6.88744">
        <ele>2822.8</ele>
      </trkpt>
      <trkpt lat="44.3619" lon="6.88743">
        <ele>2831</ele>
      </trkpt>
      <trkpt lat="44.3618" lon="6.88744">
        <ele>2836.9</ele>
      </trkpt>
      <trkpt lat="44.36176" lon="6.88745">
        <ele>2840.1</ele>
      </trkpt>
      <trkpt lat="44.36173" lon="6.88743">
        <ele>2840.8</ele>
      </trkpt>
      <trkpt lat="44.36169" lon="6.88741">
        <ele>2841.6</ele>
      </trkpt>
      <trkpt lat="44.36165" lon="6.88741">
        <ele>2842.7</ele>
      </trkpt>
      <trkpt lat="44.36156" lon="6.88739">
        <ele>2840.3</ele>
      </trkpt>
      <trkpt lat="44.36152" lon="6.88738">
        <ele>2839.3</ele>
      </trkpt>
      <trkpt lat="44.36147" lon="6.8874">
        <ele>2839.7</ele>
      </trkpt>
      <trkpt lat="44.36142" lon="6.88738">
        <ele>2837.9</ele>
      </trkpt>
      <trkpt lat="44.36139" lon="6.88739">
        <ele>2837.8</ele>
      </trkpt>
      <trkpt lat="44.36139" lon="6.88739">
        <ele>2837.8</ele>
      </trkpt>
      <trkpt lat="44.36139" lon="6.88739">
        <ele>2837.8</ele>
      </trkpt>
      <trkpt lat="44.36139" lon="6.88739">
        <ele>2837.8</ele>
      </trkpt>
      <trkpt lat="44.36139" lon="6.88739">
        <ele>2837.8</ele>
      </trkpt>
      <trkpt lat="44.36139" lon="6.88739">
        <ele>2837.8</ele>
      </trkpt>
      <trkpt lat="44.36142" lon="6.88738">
        <ele>2837.9</ele>
      </trkpt>
      <trkpt lat="44.36147" lon="6.8874">
        <ele>2839.7</ele>
      </trkpt>
      <trkpt lat="44.36152" lon="6.88738">
        <ele>2839.3</ele>
      </trkpt>
      <trkpt lat="44.36156" lon="6.88739">
        <ele>2840.3</ele>
      </trkpt>
      <trkpt lat="44.36165" lon="6.88741">
        <ele>2842.7</ele>
      </trkpt>
      <trkpt lat="44.36169" lon="6.88741">
        <ele>2841.6</ele>
      </trkpt>
      <trkpt lat="44.36173" lon="6.88743">
        <ele>2840.8</ele>
      </trkpt>
      <trkpt lat="44.36176" lon="6.88745">
        <ele>2840.1</ele>
      </trkpt>
      <trkpt lat="44.3618" lon="6.88744">
        <ele>2836.9</ele>
      </trkpt>
      <trkpt lat="44.3619" lon="6.88743">
        <ele>2831</ele>
      </trkpt>
      <trkpt lat="44.36206" lon="6.88744">
        <ele>2822.8</ele>
      </trkpt>
      <trkpt lat="44.36215" lon="6.88743">
        <ele>2817.3</ele>
      </trkpt>
      <trkpt lat="44.36224" lon="6.88748">
        <ele>2813.9</ele>
      </trkpt>
      <trkpt lat="44.36238" lon="6.88743">
        <ele>2803.1</ele>
      </trkpt>
      <trkpt lat="44.36254" lon="6.88744">
        <ele>2793.1</ele>
      </trkpt>
      <trkpt lat="44.36265" lon="6.88749">
        <ele>2786.7</ele>
      </trkpt>
      <trkpt lat="44.36284" lon="6.88746">
        <ele>2773.4</ele>
      </trkpt>
      <trkpt lat="44.36295" lon="6.88744">
        <ele>2766.2</ele>
      </trkpt>
      <trkpt lat="44.36309" lon="6.88733">
        <ele>2760</ele>
      </trkpt>
      <trkpt lat="44.36319" lon="6.88723">
        <ele>2761.8</ele>
      </trkpt>
      <trkpt lat="44.3633" lon="6.88718">
        <ele>2760.6</ele>
      </trkpt>
      <trkpt lat="44.36344" lon="6.88708">
        <ele>2779.309082</ele>
        <time>2008-04-13T10:18:08Z</time>
      </trkpt>
      <trkpt lat="44.36346" lon="6.8871">
        <ele>2777.867188</ele>
        <time>2008-04-13T10:17:19Z</time>
      </trkpt>
      <trkpt lat="44.36348" lon="6.88703">
        <ele>2777.38623</ele>
        <time>2008-04-13T10:16:59Z</time>
      </trkpt>
      <trkpt lat="44.36352" lon="6.88703">
        <ele>2776.424805</ele>
        <time>2008-04-13T10:16:42Z</time>
      </trkpt>
      <trkpt lat="44.36357" lon="6.88703">
        <ele>2775.944336</ele>
        <time>2008-04-13T10:16:25Z</time>
      </trkpt>
      <trkpt lat="44.36359" lon="6.88705">
        <ele>2774.021484</ele>
        <time>2008-04-13T10:16:11Z</time>
      </trkpt>
      <trkpt lat="44.36357" lon="6.88708">
        <ele>2772.099121</ele>
        <time>2008-04-13T10:15:57Z</time>
      </trkpt>
      <trkpt lat="44.36354" lon="6.88712">
        <ele>2773.541016</ele>
        <time>2008-04-13T10:15:00Z</time>
      </trkpt>
      <trkpt lat="44.36354" lon="6.8871">
        <ele>2773.060547</ele>
        <time>2008-04-13T10:14:33Z</time>
      </trkpt>
      <trkpt lat="44.36352" lon="6.8871">
        <ele>2772.57959</ele>
        <time>2008-04-13T10:14:17Z</time>
      </trkpt>
      <trkpt lat="44.36357" lon="6.8871">
        <ele>2772.099121</ele>
        <time>2008-04-13T10:14:05Z</time>
      </trkpt>
      <trkpt lat="44.36359" lon="6.88714">
        <ele>2769.695313</ele>
        <time>2008-04-13T10:13:38Z</time>
      </trkpt>
      <trkpt lat="44.36363" lon="6.88716">
        <ele>2768.253418</ele>
        <time>2008-04-13T10:13:24Z</time>
      </trkpt>
      <trkpt lat="44.36369" lon="6.88718">
        <ele>2766.811523</ele>
        <time>2008-04-13T10:13:06Z</time>
      </trkpt>
      <trkpt lat="44.36372" lon="6.8872">
        <ele>2765.850098</ele>
        <time>2008-04-13T10:12:54Z</time>
      </trkpt>
      <trkpt lat="44.36376" lon="6.88725">
        <ele>2764.408203</ele>
        <time>2008-04-13T10:12:39Z</time>
      </trkpt>
      <trkpt lat="44.36382" lon="6.88729">
        <ele>2763.446777</ele>
        <time>2008-04-13T10:12:25Z</time>
      </trkpt>
      <trkpt lat="44.36384" lon="6.88729">
        <ele>2761.043457</ele>
        <time>2008-04-13T10:12:10Z</time>
      </trkpt>
      <trkpt lat="44.36382" lon="6.88731">
        <ele>2760.08252</ele>
        <time>2008-04-13T10:11:31Z</time>
      </trkpt>
      <trkpt lat="44.3638" lon="6.88731">
        <ele>2759.121094</ele>
        <time>2008-04-13T10:11:13Z</time>
      </trkpt>
      <trkpt lat="44.36378" lon="6.88731">
        <ele>2757.679199</ele>
        <time>2008-04-13T10:10:52Z</time>
      </trkpt>
      <trkpt lat="44.36376" lon="6.88731">
        <ele>2755.756348</ele>
        <time>2008-04-13T10:10:37Z</time>
      </trkpt>
      <trkpt lat="44.3638" lon="6.88733">
        <ele>2754.314453</ele>
        <time>2008-04-13T10:10:21Z</time>
      </trkpt>
      <trkpt lat="44.36384" lon="6.88738">
        <ele>2753.833984</ele>
        <time>2008-04-13T10:10:08Z</time>
      </trkpt>
      <trkpt lat="44.36387" lon="6.88742">
        <ele>2752.872559</ele>
        <time>2008-04-13T10:09:57Z</time>
      </trkpt>
      <trkpt lat="44.36382" lon="6.88742">
        <ele>2750.949707</ele>
        <time>2008-04-13T10:09:42Z</time>
      </trkpt>
      <trkpt lat="44.36378" lon="6.88744">
        <ele>2748.065918</ele>
        <time>2008-04-13T10:09:28Z</time>
      </trkpt>
      <trkpt lat="44.36378" lon="6.88748">
        <ele>2747.10498</ele>
        <time>2008-04-13T10:09:06Z</time>
      </trkpt>
      <trkpt lat="44.36382" lon="6.88753">
        <ele>2746.624023</ele>
        <time>2008-04-13T10:08:53Z</time>
      </trkpt>
      <trkpt lat="44.3638" lon="6.88753">
        <ele>2744.220703</ele>
        <time>2008-04-13T10:08:39Z</time>
      </trkpt>
      <trkpt lat="44.36374" lon="6.88759">
        <ele>2740.375488</ele>
        <time>2008-04-13T10:08:23Z</time>
      </trkpt>
      <trkpt lat="44.36374" lon="6.88761">
        <ele>2737.97168</ele>
        <time>2008-04-13T10:08:12Z</time>
      </trkpt>
      <trkpt lat="44.3638" lon="6.88763">
        <ele>2734.607422</ele>
        <time>2008-04-13T10:07:54Z</time>
      </trkpt>
      <trkpt lat="44.36384" lon="6.88768">
        <ele>2731.242676</ele>
        <time>2008-04-13T10:07:40Z</time>
      </trkpt>
      <trkpt lat="44.36391" lon="6.88774">
        <ele>2726.436035</ele>
        <time>2008-04-13T10:07:26Z</time>
      </trkpt>
      <trkpt lat="44.36395" lon="6.88778">
        <ele>2720.1875</ele>
        <time>2008-04-13T10:07:11Z</time>
      </trkpt>
      <trkpt lat="44.36391" lon="6.88783">
        <ele>2714.900391</ele>
        <time>2008-04-13T10:06:54Z</time>
      </trkpt>
      <trkpt lat="44.36387" lon="6.88783">
        <ele>2714.900391</ele>
        <time>2008-04-13T10:06:42Z</time>
      </trkpt>
      <trkpt lat="44.36389" lon="6.88787">
        <ele>2714.900391</ele>
        <time>2008-04-13T10:06:29Z</time>
      </trkpt>
      <trkpt lat="44.36391" lon="6.88791">
        <ele>2714.900391</ele>
        <time>2008-04-13T10:06:15Z</time>
      </trkpt>
      <trkpt lat="44.36395" lon="6.88796">
        <ele>2714.900391</ele>
        <time>2008-04-13T10:06:00Z</time>
      </trkpt>
      <trkpt lat="44.36397" lon="6.88796">
        <ele>2714.900391</ele>
        <time>2008-04-13T10:05:45Z</time>
      </trkpt>
      <trkpt lat="44.36393" lon="6.88796">
        <ele>2714.900391</ele>
        <time>2008-04-13T10:05:30Z</time>
      </trkpt>
      <trkpt lat="44.36389" lon="6.88798">
        <ele>2714.900391</ele>
        <time>2008-04-13T10:05:16Z</time>
      </trkpt>
      <trkpt lat="44.36384" lon="6.888">
        <ele>2713.458496</ele>
        <time>2008-04-13T10:05:02Z</time>
      </trkpt>
      <trkpt lat="44.36391" lon="6.88804">
        <ele>2712.49707</ele>
        <time>2008-04-13T10:04:46Z</time>
      </trkpt>
      <trkpt lat="44.36393" lon="6.88808">
        <ele>2711.055176</ele>
        <time>2008-04-13T10:04:33Z</time>
      </trkpt>
      <trkpt lat="44.36391" lon="6.88811">
        <ele>2711.055176</ele>
        <time>2008-04-13T10:04:17Z</time>
      </trkpt>
      <trkpt lat="44.36384" lon="6.88815">
        <ele>2711.055176</ele>
        <time>2008-04-13T10:03:59Z</time>
      </trkpt>
      <trkpt lat="44.36374" lon="6.88817">
        <ele>2711.055176</ele>
        <time>2008-04-13T10:03:40Z</time>
      </trkpt>
      <trkpt lat="44.36367" lon="6.88821">
        <ele>2711.055176</ele>
        <time>2008-04-13T10:03:24Z</time>
      </trkpt>
      <trkpt lat="44.36365" lon="6.88823">
        <ele>2711.055176</ele>
        <time>2008-04-13T10:03:10Z</time>
      </trkpt>
      <trkpt lat="44.36369" lon="6.88826">
        <ele>2710.094238</ele>
        <time>2008-04-13T10:02:57Z</time>
      </trkpt>
      <trkpt lat="44.36376" lon="6.88828">
        <ele>2707.209473</ele>
        <time>2008-04-13T10:02:42Z</time>
      </trkpt>
      <trkpt lat="44.3638" lon="6.88834">
        <ele>2706.729004</ele>
        <time>2008-04-13T10:02:26Z</time>
      </trkpt>
      <trkpt lat="44.3638" lon="6.88838">
        <ele>2704.325684</ele>
        <time>2008-04-13T10:02:10Z</time>
      </trkpt>
      <trkpt lat="44.36376" lon="6.88845">
        <ele>2701.922363</ele>
        <time>2008-04-13T10:01:53Z</time>
      </trkpt>
      <trkpt lat="44.36372" lon="6.88851">
        <ele>2700.480469</ele>
        <time>2008-04-13T10:01:38Z</time>
      </trkpt>
      <trkpt lat="44.36367" lon="6.88858">
        <ele>2697.115723</ele>
        <time>2008-04-13T10:01:20Z</time>
      </trkpt>
      <trkpt lat="44.36367" lon="6.88862">
        <ele>2693.751465</ele>
        <time>2008-04-13T10:01:04Z</time>
      </trkpt>
      <trkpt lat="44.36374" lon="6.88864">
        <ele>2691.348145</ele>
        <time>2008-04-13T10:00:49Z</time>
      </trkpt>
      <trkpt lat="44.36378" lon="6.88869">
        <ele>2687.983398</ele>
        <time>2008-04-13T10:00:35Z</time>
      </trkpt>
      <trkpt lat="44.36384" lon="6.88875">
        <ele>2683.657715</ele>
        <time>2008-04-13T10:00:19Z</time>
      </trkpt>
      <trkpt lat="44.36387" lon="6.88886">
        <ele>2681.734863</ele>
        <time>2008-04-13T10:00:01Z</time>
      </trkpt>
      <trkpt lat="44.36391" lon="6.88894">
        <ele>2672.121582</ele>
        <time>2008-04-13T09:59:19Z</time>
      </trkpt>
      <trkpt lat="44.36382" lon="6.88905">
        <ele>2702.883789</ele>
        <time>2008-04-13T09:58:04Z</time>
      </trkpt>
      <trkpt lat="44.36389" lon="6.8889">
        <ele>2683.657715</ele>
        <time>2008-04-13T09:57:18Z</time>
      </trkpt>
      <trkpt lat="44.36387" lon="6.88892">
        <ele>2687.50293</ele>
        <time>2008-04-13T09:54:57Z</time>
      </trkpt>
      <trkpt lat="44.36389" lon="6.88892">
        <ele>2684.619141</ele>
        <time>2008-04-13T09:54:34Z</time>
      </trkpt>
      <trkpt lat="44.36393" lon="6.88903">
        <ele>2679.8125</ele>
        <time>2008-04-13T09:54:12Z</time>
      </trkpt>
      <trkpt lat="44.36395" lon="6.88909">
        <ele>2676.928711</ele>
        <time>2008-04-13T09:53:57Z</time>
      </trkpt>
      <trkpt lat="44.36395" lon="6.88916">
        <ele>2673.563477</ele>
        <time>2008-04-13T09:53:38Z</time>
      </trkpt>
      <trkpt lat="44.36397" lon="6.88922">
        <ele>2671.641113</ele>
        <time>2008-04-13T09:53:23Z</time>
      </trkpt>
      <trkpt lat="44.36397" lon="6.88926">
        <ele>2669.237793</ele>
        <time>2008-04-13T09:53:12Z</time>
      </trkpt>
      <trkpt lat="44.36399" lon="6.88933">
        <ele>2664.431152</ele>
        <time>2008-04-13T09:52:57Z</time>
      </trkpt>
      <trkpt lat="44.36406" lon="6.88941">
        <ele>2655.779297</ele>
        <time>2008-04-13T09:52:41Z</time>
      </trkpt>
      <trkpt lat="44.36414" lon="6.88954">
        <ele>2640.878906</ele>
        <time>2008-04-13T09:52:22Z</time>
      </trkpt>
      <trkpt lat="44.36419" lon="6.88961">
        <ele>2634.630371</ele>
        <time>2008-04-13T09:52:08Z</time>
      </trkpt>
      <trkpt lat="44.36419" lon="6.88965">
        <ele>2634.630371</ele>
        <time>2008-04-13T09:51:56Z</time>
      </trkpt>
      <trkpt lat="44.36419" lon="6.88972">
        <ele>2634.149414</ele>
        <time>2008-04-13T09:51:41Z</time>
      </trkpt>
      <trkpt lat="44.36421" lon="6.8898">
        <ele>2633.668945</ele>
        <time>2008-04-13T09:51:27Z</time>
      </trkpt>
      <trkpt lat="44.36421" lon="6.88987">
        <ele>2633.188477</ele>
        <time>2008-04-13T09:51:11Z</time>
      </trkpt>
      <trkpt lat="44.36421" lon="6.88995">
        <ele>2632.70752</ele>
        <time>2008-04-13T09:50:59Z</time>
      </trkpt>
      <trkpt lat="44.36423" lon="6.89002">
        <ele>2631.746582</ele>
        <time>2008-04-13T09:50:42Z</time>
      </trkpt>
      <trkpt lat="44.36425" lon="6.89006">
        <ele>2631.746582</ele>
        <time>2008-04-13T09:50:28Z</time>
      </trkpt>
      <trkpt lat="44.3643" lon="6.89012">
        <ele>2630.785156</ele>
        <time>2008-04-13T09:50:11Z</time>
      </trkpt>
      <trkpt lat="44.36434" lon="6.89019">
        <ele>2630.304199</ele>
        <time>2008-04-13T09:49:54Z</time>
      </trkpt>
      <trkpt lat="44.36434" lon="6.89025">
        <ele>2630.304199</ele>
        <time>2008-04-13T09:49:41Z</time>
      </trkpt>
      <trkpt lat="44.36436" lon="6.89032">
        <ele>2629.82373</ele>
        <time>2008-04-13T09:49:27Z</time>
      </trkpt>
      <trkpt lat="44.36436" lon="6.89038">
        <ele>2629.82373</ele>
        <time>2008-04-13T09:49:14Z</time>
      </trkpt>
      <trkpt lat="44.36436" lon="6.89047">
        <ele>2629.82373</ele>
        <time>2008-04-13T09:49:01Z</time>
      </trkpt>
      <trkpt lat="44.36436" lon="6.89055">
        <ele>2629.82373</ele>
        <time>2008-04-13T09:48:45Z</time>
      </trkpt>
      <trkpt lat="44.36438" lon="6.89066">
        <ele>2628.381836</ele>
        <time>2008-04-13T09:48:24Z</time>
      </trkpt>
      <trkpt lat="44.36438" lon="6.89077">
        <ele>2628.381836</ele>
        <time>2008-04-13T09:48:08Z</time>
      </trkpt>
      <trkpt lat="44.36438" lon="6.89085">
        <ele>2628.381836</ele>
        <time>2008-04-13T09:47:54Z</time>
      </trkpt>
      <trkpt lat="44.36438" lon="6.8909">
        <ele>2628.862305</ele>
        <time>2008-04-13T09:47:40Z</time>
      </trkpt>
      <trkpt lat="44.36438" lon="6.891">
        <ele>2628.862305</ele>
        <time>2008-04-13T09:47:25Z</time>
      </trkpt>
      <trkpt lat="44.36438" lon="6.89109">
        <ele>2627.900879</ele>
        <time>2008-04-13T09:47:11Z</time>
      </trkpt>
      <trkpt lat="44.3644" lon="6.89117">
        <ele>2628.381836</ele>
        <time>2008-04-13T09:46:56Z</time>
      </trkpt>
      <trkpt lat="44.3644" lon="6.89128">
        <ele>2627.42041</ele>
        <time>2008-04-13T09:46:38Z</time>
      </trkpt>
      <trkpt lat="44.36442" lon="6.89143">
        <ele>2627.900879</ele>
        <time>2008-04-13T09:46:20Z</time>
      </trkpt>
      <trkpt lat="44.3644" lon="6.89156">
        <ele>2627.900879</ele>
        <time>2008-04-13T09:46:04Z</time>
      </trkpt>
      <trkpt lat="44.3644" lon="6.89173">
        <ele>2627.900879</ele>
        <time>2008-04-13T09:45:47Z</time>
      </trkpt>
      <trkpt lat="44.3644" lon="6.89182">
        <ele>2627.900879</ele>
        <time>2008-04-13T09:45:31Z</time>
      </trkpt>
      <trkpt lat="44.36438" lon="6.89195">
        <ele>2627.900879</ele>
        <time>2008-04-13T09:45:13Z</time>
      </trkpt>
      <trkpt lat="44.36438" lon="6.89208">
        <ele>2627.42041</ele>
        <time>2008-04-13T09:44:56Z</time>
      </trkpt>
      <trkpt lat="44.3644" lon="6.89223">
        <ele>2625.498047</ele>
        <time>2008-04-13T09:44:38Z</time>
      </trkpt>
      <trkpt lat="44.3644" lon="6.89242">
        <ele>2625.498047</ele>
        <time>2008-04-13T09:44:16Z</time>
      </trkpt>
      <trkpt lat="44.3644" lon="6.89261">
        <ele>2624.536621</ele>
        <time>2008-04-13T09:43:59Z</time>
      </trkpt>
      <trkpt lat="44.36438" lon="6.89265">
        <ele>2623.094727</ele>
        <time>2008-04-13T09:43:45Z</time>
      </trkpt>
      <trkpt lat="44.36438" lon="6.89278">
        <ele>2621.171875</ele>
        <time>2008-04-13T09:43:29Z</time>
      </trkpt>
      <trkpt lat="44.36436" lon="6.89291">
        <ele>2618.768555</ele>
        <time>2008-04-13T09:43:10Z</time>
      </trkpt>
      <trkpt lat="44.36434" lon="6.89306">
        <ele>2615.884766</ele>
        <time>2008-04-13T09:42:50Z</time>
      </trkpt>
      <trkpt lat="44.36432" lon="6.89319">
        <ele>2613.481445</ele>
        <time>2008-04-13T09:42:35Z</time>
      </trkpt>
      <trkpt lat="44.3643" lon="6.89332">
        <ele>2612.039551</ele>
        <time>2008-04-13T09:42:19Z</time>
      </trkpt>
      <trkpt lat="44.36434" lon="6.89338">
        <ele>2608.674805</ele>
        <time>2008-04-13T09:41:10Z</time>
      </trkpt>
      <trkpt lat="44.3643" lon="6.89347">
        <ele>2612.52002</ele>
        <time>2008-04-13T09:35:14Z</time>
      </trkpt>
      <trkpt lat="44.36432" lon="6.89353">
        <ele>2612.039551</ele>
        <time>2008-04-13T09:35:00Z</time>
      </trkpt>
      <trkpt lat="44.36434" lon="6.89353">
        <ele>2613.481445</ele>
        <time>2008-04-13T09:33:57Z</time>
      </trkpt>
      <trkpt lat="44.36434" lon="6.89353">
        <ele>2612.52002</ele>
        <time>2008-04-13T09:33:28Z</time>
      </trkpt>
      <trkpt lat="44.36434" lon="6.89353">
        <ele>2611.077637</ele>
        <time>2008-04-13T09:33:07Z</time>
      </trkpt>
      <trkpt lat="44.36436" lon="6.8936">
        <ele>2607.713379</ele>
        <time>2008-04-13T09:32:48Z</time>
      </trkpt>
      <trkpt lat="44.3644" lon="6.89368">
        <ele>2600.503418</ele>
        <time>2008-04-13T09:32:34Z</time>
      </trkpt>
      <trkpt lat="44.36447" lon="6.89377">
        <ele>2594.735596</ele>
        <time>2008-04-13T09:32:19Z</time>
      </trkpt>
      <trkpt lat="44.36451" lon="6.89381">
        <ele>2588.006592</ele>
        <time>2008-04-13T09:32:06Z</time>
      </trkpt>
      <trkpt lat="44.36453" lon="6.89386">
        <ele>2584.161133</ele>
        <time>2008-04-13T09:31:55Z</time>
      </trkpt>
      <trkpt lat="44.36447" lon="6.89384">
        <ele>2583.68042</ele>
        <time>2008-04-13T09:31:41Z</time>
      </trkpt>
      <trkpt lat="44.36445" lon="6.89381">
        <ele>2582.718994</ele>
        <time>2008-04-13T09:31:32Z</time>
      </trkpt>
      <trkpt lat="44.36447" lon="6.89384">
        <ele>2579.835205</ele>
        <time>2008-04-13T09:31:18Z</time>
      </trkpt>
      <trkpt lat="44.36449" lon="6.89381">
        <ele>2574.067383</ele>
        <time>2008-04-13T09:31:05Z</time>
      </trkpt>
      <trkpt lat="44.36427" lon="6.89403">
        <ele>2599.061523</ele>
        <time>2008-04-13T09:30:44Z</time>
      </trkpt>
      <trkpt lat="44.36423" lon="6.89405">
        <ele>2599.541992</ele>
        <time>2008-04-13T09:30:29Z</time>
      </trkpt>
      <trkpt lat="44.36425" lon="6.89411">
        <ele>2594.735596</ele>
        <time>2008-04-13T09:30:12Z</time>
      </trkpt>
      <trkpt lat="44.36427" lon="6.8942">
        <ele>2587.044922</ele>
        <time>2008-04-13T09:29:59Z</time>
      </trkpt>
      <trkpt lat="44.36427" lon="6.89426">
        <ele>2579.835205</ele>
        <time>2008-04-13T09:29:46Z</time>
      </trkpt>
      <trkpt lat="44.36421" lon="6.89424">
        <ele>2581.2771</ele>
        <time>2008-04-13T09:29:30Z</time>
      </trkpt>
      <trkpt lat="44.36417" lon="6.8942">
        <ele>2580.796631</ele>
        <time>2008-04-13T09:29:16Z</time>
      </trkpt>
      <trkpt lat="44.36412" lon="6.8942">
        <ele>2578.873779</ele>
        <time>2008-04-13T09:29:00Z</time>
      </trkpt>
      <trkpt lat="44.36408" lon="6.89429">
        <ele>2576.951416</ele>
        <time>2008-04-13T09:28:43Z</time>
      </trkpt>
      <trkpt lat="44.36408" lon="6.89439">
        <ele>2574.067383</ele>
        <time>2008-04-13T09:28:24Z</time>
      </trkpt>
      <trkpt lat="44.36408" lon="6.8945">
        <ele>2572.144775</ele>
        <time>2008-04-13T09:28:06Z</time>
      </trkpt>
      <trkpt lat="44.36408" lon="6.89461">
        <ele>2570.702637</ele>
        <time>2008-04-13T09:27:49Z</time>
      </trkpt>
      <trkpt lat="44.36406" lon="6.89471">
        <ele>2568.780029</ele>
        <time>2008-04-13T09:27:33Z</time>
      </trkpt>
      <trkpt lat="44.36406" lon="6.89482">
        <ele>2566.857422</ele>
        <time>2008-04-13T09:27:14Z</time>
      </trkpt>
      <trkpt lat="44.36406" lon="6.89493">
        <ele>2565.415527</ele>
        <time>2008-04-13T09:26:56Z</time>
      </trkpt>
      <trkpt lat="44.36404" lon="6.89502">
        <ele>2562.531494</ele>
        <time>2008-04-13T09:26:38Z</time>
      </trkpt>
      <trkpt lat="44.36404" lon="6.89512">
        <ele>2560.128174</ele>
        <time>2008-04-13T09:26:21Z</time>
      </trkpt>
      <trkpt lat="44.36402" lon="6.89523">
        <ele>2559.166992</ele>
        <time>2008-04-13T09:26:05Z</time>
      </trkpt>
      <trkpt lat="44.36402" lon="6.89536">
        <ele>2558.686279</ele>
        <time>2008-04-13T09:25:48Z</time>
      </trkpt>
      <trkpt lat="44.36402" lon="6.89549">
        <ele>2557.244385</ele>
        <time>2008-04-13T09:25:33Z</time>
      </trkpt>
      <trkpt lat="44.36402" lon="6.89562">
        <ele>2555.321533</ele>
        <time>2008-04-13T09:25:16Z</time>
      </trkpt>
      <trkpt lat="44.36404" lon="6.89574">
        <ele>2552.918213</ele>
        <time>2008-04-13T09:25:00Z</time>
      </trkpt>
      <trkpt lat="44.36402" lon="6.8959">
        <ele>2554.84082</ele>
        <time>2008-04-13T09:24:43Z</time>
      </trkpt>
      <trkpt lat="44.36404" lon="6.89598">
        <ele>2552.918213</ele>
        <time>2008-04-13T09:24:30Z</time>
      </trkpt>
      <trkpt lat="44.36406" lon="6.89605">
        <ele>2549.072998</ele>
        <time>2008-04-13T09:24:14Z</time>
      </trkpt>
      <trkpt lat="44.36408" lon="6.89617">
        <ele>2547.150391</ele>
        <time>2008-04-13T09:23:58Z</time>
      </trkpt>
      <trkpt lat="44.3641" lon="6.8963">
        <ele>2547.631104</ele>
        <time>2008-04-13T09:23:42Z</time>
      </trkpt>
      <trkpt lat="44.36414" lon="6.89639">
        <ele>2543.785889</ele>
        <time>2008-04-13T09:23:27Z</time>
      </trkpt>
      <trkpt lat="44.36419" lon="6.89647">
        <ele>2542.343994</ele>
        <time>2008-04-13T09:23:11Z</time>
      </trkpt>
      <trkpt lat="44.36425" lon="6.89654">
        <ele>2540.421143</ele>
        <time>2008-04-13T09:22:55Z</time>
      </trkpt>
      <trkpt lat="44.36432" lon="6.8966">
        <ele>2537.537109</ele>
        <time>2008-04-13T09:22:37Z</time>
      </trkpt>
      <trkpt lat="44.36438" lon="6.89669">
        <ele>2535.614502</ele>
        <time>2008-04-13T09:22:21Z</time>
      </trkpt>
      <trkpt lat="44.36442" lon="6.8968">
        <ele>2533.691895</ele>
        <time>2008-04-13T09:22:03Z</time>
      </trkpt>
      <trkpt lat="44.36447" lon="6.89688">
        <ele>2532.730469</ele>
        <time>2008-04-13T09:21:49Z</time>
      </trkpt>
      <trkpt lat="44.36451" lon="6.89701">
        <ele>2533.211182</ele>
        <time>2008-04-13T09:21:32Z</time>
      </trkpt>
      <trkpt lat="44.36453" lon="6.89712">
        <ele>2532.25</ele>
        <time>2008-04-13T09:21:17Z</time>
      </trkpt>
      <trkpt lat="44.36457" lon="6.89725">
        <ele>2530.808105</ele>
        <time>2008-04-13T09:21:00Z</time>
      </trkpt>
      <trkpt lat="44.36462" lon="6.89744">
        <ele>2528.885254</ele>
        <time>2008-04-13T09:20:41Z</time>
      </trkpt>
      <trkpt lat="44.36457" lon="6.8977">
        <ele>2532.25</ele>
        <time>2008-04-13T09:20:23Z</time>
      </trkpt>
      <trkpt lat="44.36455" lon="6.89785">
        <ele>2532.25</ele>
        <time>2008-04-13T09:20:05Z</time>
      </trkpt>
      <trkpt lat="44.36455" lon="6.89802">
        <ele>2532.25</ele>
        <time>2008-04-13T09:19:46Z</time>
      </trkpt>
      <trkpt lat="44.3646" lon="6.89815">
        <ele>2527.443359</ele>
        <time>2008-04-13T09:19:26Z</time>
      </trkpt>
      <trkpt lat="44.36466" lon="6.89823">
        <ele>2524.078857</ele>
        <time>2008-04-13T09:19:09Z</time>
      </trkpt>
      <trkpt lat="44.3647" lon="6.89834">
        <ele>2521.675293</ele>
        <time>2008-04-13T09:18:52Z</time>
      </trkpt>
      <trkpt lat="44.3647" lon="6.89841">
        <ele>2518.310791</ele>
        <time>2008-04-13T09:18:36Z</time>
      </trkpt>
      <trkpt lat="44.36468" lon="6.89841">
        <ele>2516.868896</ele>
        <time>2008-04-13T09:18:19Z</time>
      </trkpt>
      <trkpt lat="44.36462" lon="6.89843">
        <ele>2515.907471</ele>
        <time>2008-04-13T09:18:03Z</time>
      </trkpt>
      <trkpt lat="44.36457" lon="6.89845">
        <ele>2515.427002</ele>
        <time>2008-04-13T09:17:46Z</time>
      </trkpt>
      <trkpt lat="44.36455" lon="6.89856">
        <ele>2513.50415</ele>
        <time>2008-04-13T09:17:27Z</time>
      </trkpt>
      <trkpt lat="44.36447" lon="6.89858">
        <ele>2510.139648</ele>
        <time>2008-04-13T09:17:07Z</time>
      </trkpt>
      <trkpt lat="44.36447" lon="6.89871">
        <ele>2508.217041</ele>
        <time>2008-04-13T09:16:45Z</time>
      </trkpt>
      <trkpt lat="44.36449" lon="6.89879">
        <ele>2505.333008</ele>
        <time>2008-04-13T09:16:29Z</time>
      </trkpt>
      <trkpt lat="44.36447" lon="6.89886">
        <ele>2502.929688</ele>
        <time>2008-04-13T09:16:15Z</time>
      </trkpt>
      <trkpt lat="44.3644" lon="6.89888">
        <ele>2502.448975</ele>
        <time>2008-04-13T09:15:59Z</time>
      </trkpt>
      <trkpt lat="44.36434" lon="6.8989">
        <ele>2499.084473</ele>
        <time>2008-04-13T09:15:41Z</time>
      </trkpt>
      <trkpt lat="44.36438" lon="6.89898">
        <ele>2495.719971</ele>
        <time>2008-04-13T09:15:23Z</time>
      </trkpt>
      <trkpt lat="44.36442" lon="6.89909">
        <ele>2491.874512</ele>
        <time>2008-04-13T09:15:03Z</time>
      </trkpt>
      <trkpt lat="44.36445" lon="6.8992">
        <ele>2491.393799</ele>
        <time>2008-04-13T09:14:44Z</time>
      </trkpt>
      <trkpt lat="44.36442" lon="6.89924">
        <ele>2488.51001</ele>
        <time>2008-04-13T09:14:27Z</time>
      </trkpt>
      <trkpt lat="44.36438" lon="6.89931">
        <ele>2488.990479</ele>
        <time>2008-04-13T09:14:11Z</time>
      </trkpt>
      <trkpt lat="44.36442" lon="6.89944">
        <ele>2484.664795</ele>
        <time>2008-04-13T09:13:48Z</time>
      </trkpt>
      <trkpt lat="44.36447" lon="6.89954">
        <ele>2481.780762</ele>
        <time>2008-04-13T09:13:26Z</time>
      </trkpt>
      <trkpt lat="44.36447" lon="6.89965">
        <ele>2479.858154</ele>
        <time>2008-04-13T09:13:08Z</time>
      </trkpt>
      <trkpt lat="44.36447" lon="6.89976">
        <ele>2476.012939</ele>
        <time>2008-04-13T09:12:45Z</time>
      </trkpt>
      <trkpt lat="44.36453" lon="6.89993">
        <ele>2472.648193</ele>
        <time>2008-04-13T09:12:21Z</time>
      </trkpt>
      <trkpt lat="44.36445" lon="6.90001">
        <ele>2471.686768</ele>
        <time>2008-04-13T09:11:59Z</time>
      </trkpt>
      <trkpt lat="44.36449" lon="6.90017">
        <ele>2469.283691</ele>
        <time>2008-04-13T09:11:32Z</time>
      </trkpt>
      <trkpt lat="44.36453" lon="6.90034">
        <ele>2466.399658</ele>
        <time>2008-04-13T09:11:08Z</time>
      </trkpt>
      <trkpt lat="44.36462" lon="6.90053">
        <ele>2461.112549</ele>
        <time>2008-04-13T09:10:40Z</time>
      </trkpt>
      <trkpt lat="44.3647" lon="6.90068">
        <ele>2456.305664</ele>
        <time>2008-04-13T09:10:15Z</time>
      </trkpt>
      <trkpt lat="44.36475" lon="6.90081">
        <ele>2452.460449</ele>
        <time>2008-04-13T09:09:52Z</time>
      </trkpt>
      <trkpt lat="44.36479" lon="6.901">
        <ele>2448.615234</ele>
        <time>2008-04-13T09:09:27Z</time>
      </trkpt>
      <trkpt lat="44.36479" lon="6.90124">
        <ele>2449.57666</ele>
        <time>2008-04-13T09:09:01Z</time>
      </trkpt>
      <trkpt lat="44.36483" lon="6.90141">
        <ele>2447.17334</ele>
        <time>2008-04-13T09:08:38Z</time>
      </trkpt>
      <trkpt lat="44.36485" lon="6.9016">
        <ele>2444.77002</ele>
        <time>2008-04-13T09:08:13Z</time>
      </trkpt>
      <trkpt lat="44.3649" lon="6.90173">
        <ele>2442.366699</ele>
        <time>2008-04-13T09:07:52Z</time>
      </trkpt>
      <trkpt lat="44.36492" lon="6.9019">
        <ele>2437.560059</ele>
        <time>2008-04-13T09:07:28Z</time>
      </trkpt>
      <trkpt lat="44.36496" lon="6.90207">
        <ele>2435.637451</ele>
        <time>2008-04-13T09:07:05Z</time>
      </trkpt>
      <trkpt lat="44.365" lon="6.9022">
        <ele>2433.714844</ele>
        <time>2008-04-13T09:06:44Z</time>
      </trkpt>
      <trkpt lat="44.36507" lon="6.90233">
        <ele>2431.792236</ele>
        <time>2008-04-13T09:06:24Z</time>
      </trkpt>
      <trkpt lat="44.36517" lon="6.90244">
        <ele>2429.388916</ele>
        <time>2008-04-13T09:06:01Z</time>
      </trkpt>
      <trkpt lat="44.36528" lon="6.90255">
        <ele>2428.908203</ele>
        <time>2008-04-13T09:05:36Z</time>
      </trkpt>
      <trkpt lat="44.36539" lon="6.90265">
        <ele>2424.582275</ele>
        <time>2008-04-13T09:05:12Z</time>
      </trkpt>
      <trkpt lat="44.36552" lon="6.90274">
        <ele>2420.737061</ele>
        <time>2008-04-13T09:04:50Z</time>
      </trkpt>
      <trkpt lat="44.36563" lon="6.9028">
        <ele>2414.007813</ele>
        <time>2008-04-13T09:04:29Z</time>
      </trkpt>
      <trkpt lat="44.3656" lon="6.903">
        <ele>2414.007813</ele>
        <time>2008-04-13T09:04:03Z</time>
      </trkpt>
      <trkpt lat="44.36567" lon="6.90313">
        <ele>2410.162354</ele>
        <time>2008-04-13T09:03:39Z</time>
      </trkpt>
      <trkpt lat="44.36578" lon="6.90319">
        <ele>2408.720459</ele>
        <time>2008-04-13T09:03:14Z</time>
      </trkpt>
      <trkpt lat="44.3659" lon="6.90323">
        <ele>2407.278564</ele>
        <time>2008-04-13T09:02:50Z</time>
      </trkpt>
      <trkpt lat="44.36601" lon="6.9033">
        <ele>2404.394531</ele>
        <time>2008-04-13T09:02:26Z</time>
      </trkpt>
      <trkpt lat="44.36614" lon="6.90334">
        <ele>2399.107422</ele>
        <time>2008-04-13T09:02:03Z</time>
      </trkpt>
      <trkpt lat="44.3662" lon="6.90349">
        <ele>2397.184814</ele>
        <time>2008-04-13T09:01:40Z</time>
      </trkpt>
      <trkpt lat="44.36623" lon="6.90366">
        <ele>2396.223633</ele>
        <time>2008-04-13T09:01:18Z</time>
      </trkpt>
      <trkpt lat="44.36633" lon="6.90375">
        <ele>2394.300537</ele>
        <time>2008-04-13T09:00:56Z</time>
      </trkpt>
      <trkpt lat="44.36646" lon="6.90381">
        <ele>2389.974854</ele>
        <time>2008-04-13T09:00:32Z</time>
      </trkpt>
      <trkpt lat="44.36655" lon="6.9039">
        <ele>2386.610107</ele>
        <time>2008-04-13T09:00:09Z</time>
      </trkpt>
      <trkpt lat="44.36663" lon="6.90398">
        <ele>2383.245605</ele>
        <time>2008-04-13T08:59:47Z</time>
      </trkpt>
      <trkpt lat="44.36674" lon="6.90409">
        <ele>2380.842529</ele>
        <time>2008-04-13T08:59:22Z</time>
      </trkpt>
      <trkpt lat="44.36687" lon="6.9042">
        <ele>2380.361816</ele>
        <time>2008-04-13T08:58:56Z</time>
      </trkpt>
      <trkpt lat="44.36698" lon="6.90431">
        <ele>2379.400146</ele>
        <time>2008-04-13T08:58:33Z</time>
      </trkpt>
      <trkpt lat="44.36711" lon="6.90446">
        <ele>2379.880859</ele>
        <time>2008-04-13T08:58:06Z</time>
      </trkpt>
      <trkpt lat="44.36726" lon="6.90459">
        <ele>2376.516357</ele>
        <time>2008-04-13T08:57:43Z</time>
      </trkpt>
      <trkpt lat="44.36741" lon="6.90476">
        <ele>2376.99707</ele>
        <time>2008-04-13T08:57:16Z</time>
      </trkpt>
      <trkpt lat="44.36754" lon="6.90484">
        <ele>2369.787109</ele>
        <time>2008-04-13T08:56:53Z</time>
      </trkpt>
      <trkpt lat="44.36771" lon="6.90504">
        <ele>2366.90332</ele>
        <time>2008-04-13T08:56:25Z</time>
      </trkpt>
      <trkpt lat="44.36786" lon="6.90519">
        <ele>2365.941895</ele>
        <time>2008-04-13T08:55:59Z</time>
      </trkpt>
      <trkpt lat="44.36799" lon="6.90538">
        <ele>2367.864502</ele>
        <time>2008-04-13T08:55:30Z</time>
      </trkpt>
      <trkpt lat="44.36816" lon="6.90562">
        <ele>2365.461426</ele>
        <time>2008-04-13T08:54:59Z</time>
      </trkpt>
      <trkpt lat="44.36829" lon="6.90583">
        <ele>2363.057861</ele>
        <time>2008-04-13T08:54:32Z</time>
      </trkpt>
      <trkpt lat="44.36839" lon="6.90604">
        <ele>2362.096436</ele>
        <time>2008-04-13T08:54:10Z</time>
      </trkpt>
      <trkpt lat="44.3685" lon="6.90628">
        <ele>2361.615967</ele>
        <time>2008-04-13T08:53:44Z</time>
      </trkpt>
      <trkpt lat="44.36852" lon="6.90634">
        <ele>2361.615967</ele>
        <time>2008-04-13T08:53:39Z</time>
      </trkpt>
      <trkpt lat="44.36863" lon="6.90658">
        <ele>2362.096436</ele>
        <time>2008-04-13T08:53:17Z</time>
      </trkpt>
      <trkpt lat="44.36872" lon="6.90677">
        <ele>2363.057861</ele>
        <time>2008-04-13T08:52:59Z</time>
      </trkpt>
      <trkpt lat="44.36889" lon="6.90695">
        <ele>2364.5</ele>
        <time>2008-04-13T08:52:36Z</time>
      </trkpt>
      <trkpt lat="44.36899" lon="6.90695">
        <ele>2365.461426</ele>
        <time>2008-04-13T08:52:23Z</time>
      </trkpt>
      <trkpt lat="44.36917" lon="6.90699">
        <ele>2364.980713</ele>
        <time>2008-04-13T08:52:01Z</time>
      </trkpt>
      <trkpt lat="44.36929" lon="6.9071">
        <ele>2364.019287</ele>
        <time>2008-04-13T08:51:41Z</time>
      </trkpt>
      <trkpt lat="44.36934" lon="6.9071">
        <ele>2362.577148</ele>
        <time>2008-04-13T08:51:03Z</time>
      </trkpt>
      <trkpt lat="44.36936" lon="6.9071">
        <ele>2362.577148</ele>
        <time>2008-04-13T08:50:38Z</time>
      </trkpt>
      <trkpt lat="44.3694" lon="6.9071">
        <ele>2361.615967</ele>
        <time>2008-04-13T08:50:26Z</time>
      </trkpt>
      <trkpt lat="44.36942" lon="6.90714">
        <ele>2361.135254</ele>
        <time>2008-04-13T08:50:06Z</time>
      </trkpt>
      <trkpt lat="44.36942" lon="6.90714">
        <ele>2356.328613</ele>
        <time>2008-04-13T08:49:14Z</time>
      </trkpt>
      <trkpt lat="44.36944" lon="6.90712">
        <ele>2356.328613</ele>
        <time>2008-04-13T08:46:53Z</time>
      </trkpt>
      <trkpt lat="44.36944" lon="6.90714">
        <ele>2360.654541</ele>
        <time>2008-04-13T08:46:11Z</time>
      </trkpt>
      <trkpt lat="44.36949" lon="6.90718">
        <ele>2358.251221</ele>
        <time>2008-04-13T08:45:56Z</time>
      </trkpt>
      <trkpt lat="44.36957" lon="6.90727">
        <ele>2357.770752</ele>
        <time>2008-04-13T08:45:39Z</time>
      </trkpt>
      <trkpt lat="44.36964" lon="6.90742">
        <ele>2353.925537</ele>
        <time>2008-04-13T08:45:17Z</time>
      </trkpt>
      <trkpt lat="44.36968" lon="6.90761">
        <ele>2350.080322</ele>
        <time>2008-04-13T08:44:54Z</time>
      </trkpt>
      <trkpt lat="44.36966" lon="6.90772">
        <ele>2347.676758</ele>
        <time>2008-04-13T08:44:38Z</time>
      </trkpt>
      <trkpt lat="44.3697" lon="6.90789">
        <ele>2343.831543</ele>
        <time>2008-04-13T08:44:13Z</time>
      </trkpt>
      <trkpt lat="44.36968" lon="6.90802">
        <ele>2340.94751</ele>
        <time>2008-04-13T08:43:51Z</time>
      </trkpt>
      <trkpt lat="44.36977" lon="6.90813">
        <ele>2338.544434</ele>
        <time>2008-04-13T08:43:28Z</time>
      </trkpt>
      <trkpt lat="44.36985" lon="6.90821">
        <ele>2333.737793</ele>
        <time>2008-04-13T08:43:04Z</time>
      </trkpt>
      <trkpt lat="44.36994" lon="6.90832">
        <ele>2328.450439</ele>
        <time>2008-04-13T08:42:40Z</time>
      </trkpt>
      <trkpt lat="44.37007" lon="6.9084">
        <ele>2325.085693</ele>
        <time>2008-04-13T08:42:16Z</time>
      </trkpt>
      <trkpt lat="44.37013" lon="6.90853">
        <ele>2321.240479</ele>
        <time>2008-04-13T08:41:54Z</time>
      </trkpt>
      <trkpt lat="44.37011" lon="6.90871">
        <ele>2317.395264</ele>
        <time>2008-04-13T08:41:28Z</time>
      </trkpt>
      <trkpt lat="44.37017" lon="6.90877">
        <ele>2316.434082</ele>
        <time>2008-04-13T08:41:07Z</time>
      </trkpt>
      <trkpt lat="44.37032" lon="6.90875">
        <ele>2314.991943</ele>
        <time>2008-04-13T08:40:44Z</time>
      </trkpt>
      <trkpt lat="44.37043" lon="6.90875">
        <ele>2312.588623</ele>
        <time>2008-04-13T08:40:23Z</time>
      </trkpt>
      <trkpt lat="44.37045" lon="6.90894">
        <ele>2310.185303</ele>
        <time>2008-04-13T08:40:00Z</time>
      </trkpt>
      <trkpt lat="44.37047" lon="6.90907">
        <ele>2306.340088</ele>
        <time>2008-04-13T08:39:39Z</time>
      </trkpt>
      <trkpt lat="44.37063" lon="6.90916">
        <ele>2305.859375</ele>
        <time>2008-04-13T08:39:11Z</time>
      </trkpt>
      <trkpt lat="44.37071" lon="6.90924">
        <ele>2304.41748</ele>
        <time>2008-04-13T08:38:49Z</time>
      </trkpt>
      <trkpt lat="44.37073" lon="6.90941">
        <ele>2300.091797</ele>
        <time>2008-04-13T08:38:26Z</time>
      </trkpt>
      <trkpt lat="44.3708" lon="6.90956">
        <ele>2297.688232</ele>
        <time>2008-04-13T08:38:05Z</time>
      </trkpt>
      <trkpt lat="44.37088" lon="6.90961">
        <ele>2294.323486</ele>
        <time>2008-04-13T08:37:45Z</time>
      </trkpt>
      <trkpt lat="44.37099" lon="6.9095">
        <ele>2290.958984</ele>
        <time>2008-04-13T08:37:25Z</time>
      </trkpt>
      <trkpt lat="44.37108" lon="6.90961">
        <ele>2284.22998</ele>
        <time>2008-04-13T08:37:02Z</time>
      </trkpt>
      <trkpt lat="44.37114" lon="6.90946">
        <ele>2281.345703</ele>
        <time>2008-04-13T08:36:39Z</time>
      </trkpt>
      <trkpt lat="44.37123" lon="6.90928">
        <ele>2279.423096</ele>
        <time>2008-04-13T08:36:15Z</time>
      </trkpt>
      <trkpt lat="44.37135" lon="6.90911">
        <ele>2273.655273</ele>
        <time>2008-04-13T08:35:48Z</time>
      </trkpt>
      <trkpt lat="44.37146" lon="6.90896">
        <ele>2269.32959</ele>
        <time>2008-04-13T08:35:23Z</time>
      </trkpt>
      <trkpt lat="44.37159" lon="6.90879">
        <ele>2264.522705</ele>
        <time>2008-04-13T08:34:57Z</time>
      </trkpt>
      <trkpt lat="44.37176" lon="6.90868">
        <ele>2260.67749</ele>
        <time>2008-04-13T08:34:33Z</time>
      </trkpt>
      <trkpt lat="44.37206" lon="6.90864">
        <ele>2259.716064</ele>
        <time>2008-04-13T08:34:03Z</time>
      </trkpt>
      <trkpt lat="44.37208" lon="6.90864">
        <ele>2257.793701</ele>
        <time>2008-04-13T08:33:39Z</time>
      </trkpt>
      <trkpt lat="44.37211" lon="6.90864">
        <ele>2257.793701</ele>
        <time>2008-04-13T08:33:15Z</time>
      </trkpt>
      <trkpt lat="44.37223" lon="6.90862">
        <ele>2255.87085</ele>
        <time>2008-04-13T08:32:56Z</time>
      </trkpt>
      <trkpt lat="44.37234" lon="6.9086">
        <ele>2253.948486</ele>
        <time>2008-04-13T08:32:40Z</time>
      </trkpt>
      <trkpt lat="44.37241" lon="6.90856">
        <ele>2252.025635</ele>
        <time>2008-04-13T08:32:24Z</time>
      </trkpt>
      <trkpt lat="44.37243" lon="6.90847">
        <ele>2250.103027</ele>
        <time>2008-04-13T08:32:10Z</time>
      </trkpt>
      <trkpt lat="44.37253" lon="6.90845">
        <ele>2248.660889</ele>
        <time>2008-04-13T08:31:52Z</time>
      </trkpt>
      <trkpt lat="44.37266" lon="6.90847">
        <ele>2248.180176</ele>
        <time>2008-04-13T08:31:33Z</time>
      </trkpt>
      <trkpt lat="44.37277" lon="6.90849">
        <ele>2246.738281</ele>
        <time>2008-04-13T08:31:13Z</time>
      </trkpt>
      <trkpt lat="44.37286" lon="6.90851">
        <ele>2244.815674</ele>
        <time>2008-04-13T08:30:56Z</time>
      </trkpt>
      <trkpt lat="44.37292" lon="6.90856">
        <ele>2242.412598</ele>
        <time>2008-04-13T08:30:40Z</time>
      </trkpt>
      <trkpt lat="44.37299" lon="6.90858">
        <ele>2240.009277</ele>
        <time>2008-04-13T08:30:24Z</time>
      </trkpt>
      <trkpt lat="44.37305" lon="6.9086">
        <ele>2237.125244</ele>
        <time>2008-04-13T08:30:08Z</time>
      </trkpt>
      <trkpt lat="44.37309" lon="6.90866">
        <ele>2235.202393</ele>
        <time>2008-04-13T08:29:50Z</time>
      </trkpt>
      <trkpt lat="44.37316" lon="6.90875">
        <ele>2231.837891</ele>
        <time>2008-04-13T08:29:32Z</time>
      </trkpt>
      <trkpt lat="44.37324" lon="6.90883">
        <ele>2228.953857</ele>
        <time>2008-04-13T08:29:10Z</time>
      </trkpt>
      <trkpt lat="44.37335" lon="6.9089">
        <ele>2226.070068</ele>
        <time>2008-04-13T08:28:48Z</time>
      </trkpt>
      <trkpt lat="44.37346" lon="6.90892">
        <ele>2224.147461</ele>
        <time>2008-04-13T08:28:28Z</time>
      </trkpt>
      <trkpt lat="44.37365" lon="6.90898">
        <ele>2219.821289</ele>
        <time>2008-04-13T08:28:04Z</time>
      </trkpt>
      <trkpt lat="44.37369" lon="6.90898">
        <ele>2219.34082</ele>
        <time>2008-04-13T08:27:15Z</time>
      </trkpt>
      <trkpt lat="44.37376" lon="6.90896">
        <ele>2219.34082</ele>
        <time>2008-04-13T08:26:53Z</time>
      </trkpt>
      <trkpt lat="44.37389" lon="6.9089">
        <ele>2216.456787</ele>
        <time>2008-04-13T08:26:34Z</time>
      </trkpt>
      <trkpt lat="44.37399" lon="6.90875">
        <ele>2214.53418</ele>
        <time>2008-04-13T08:26:13Z</time>
      </trkpt>
      <trkpt lat="44.3741" lon="6.90862">
        <ele>2212.130859</ele>
        <time>2008-04-13T08:25:55Z</time>
      </trkpt>
      <trkpt lat="44.37421" lon="6.90864">
        <ele>2210.208252</ele>
        <time>2008-04-13T08:25:24Z</time>
      </trkpt>
      <trkpt lat="44.37421" lon="6.90864">
        <ele>2215.495605</ele>
        <time>2008-04-13T08:24:42Z</time>
      </trkpt>
      <trkpt lat="44.37421" lon="6.90866">
        <ele>2211.650391</ele>
        <time>2008-04-13T08:23:37Z</time>
      </trkpt>
      <trkpt lat="44.37429" lon="6.90871">
        <ele>2208.285645</ele>
        <time>2008-04-13T08:23:17Z</time>
      </trkpt>
      <trkpt lat="44.3744" lon="6.90881">
        <ele>2204.44043</ele>
        <time>2008-04-13T08:22:51Z</time>
      </trkpt>
      <trkpt lat="44.37449" lon="6.90886">
        <ele>2201.075684</ele>
        <time>2008-04-13T08:22:24Z</time>
      </trkpt>
      <trkpt lat="44.37455" lon="6.90888">
        <ele>2198.19165</ele>
        <time>2008-04-13T08:22:00Z</time>
      </trkpt>
      <trkpt lat="44.37457" lon="6.90888">
        <ele>2128.496338</ele>
        <time>2008-04-13T08:21:35Z</time>
      </trkpt>
      <trkpt lat="44.37468" lon="6.90896">
        <ele>2126.57373</ele>
        <time>2008-04-13T08:21:12Z</time>
      </trkpt>
      <trkpt lat="44.37474" lon="6.90909">
        <ele>2123.689453</ele>
        <time>2008-04-13T08:20:50Z</time>
      </trkpt>
      <trkpt lat="44.37485" lon="6.90916">
        <ele>2121.766846</ele>
        <time>2008-04-13T08:20:29Z</time>
      </trkpt>
      <trkpt lat="44.37496" lon="6.9092">
        <ele>2120.324951</ele>
        <time>2008-04-13T08:20:08Z</time>
      </trkpt>
      <trkpt lat="44.37505" lon="6.90926">
        <ele>2119.36377</ele>
        <time>2008-04-13T08:19:48Z</time>
      </trkpt>
      <trkpt lat="44.37517" lon="6.90935">
        <ele>2118.402344</ele>
        <time>2008-04-13T08:19:26Z</time>
      </trkpt>
      <trkpt lat="44.3753" lon="6.90946">
        <ele>2117.921631</ele>
        <time>2008-04-13T08:19:05Z</time>
      </trkpt>
      <trkpt lat="44.3755" lon="6.90965">
        <ele>2117.440918</ele>
        <time>2008-04-13T08:18:37Z</time>
      </trkpt>
      <trkpt lat="44.37552" lon="6.90965">
        <ele>2116.960449</ele>
        <time>2008-04-13T08:18:29Z</time>
      </trkpt>
      <trkpt lat="44.37552" lon="6.90965">
        <ele>2116.479736</ele>
        <time>2008-04-13T08:17:52Z</time>
      </trkpt>
      <trkpt lat="44.37556" lon="6.90965">
        <ele>2116.479736</ele>
        <time>2008-04-13T08:17:32Z</time>
      </trkpt>
      <trkpt lat="44.37569" lon="6.90969">
        <ele>2115.999023</ele>
        <time>2008-04-13T08:17:11Z</time>
      </trkpt>
      <trkpt lat="44.37584" lon="6.90974">
        <ele>2115.999023</ele>
        <time>2008-04-13T08:16:49Z</time>
      </trkpt>
      <trkpt lat="44.37595" lon="6.90978">
        <ele>2115.999023</ele>
        <time>2008-04-13T08:16:30Z</time>
      </trkpt>
      <trkpt lat="44.37603" lon="6.90982">
        <ele>2115.518555</ele>
        <time>2008-04-13T08:16:10Z</time>
      </trkpt>
      <trkpt lat="44.37616" lon="6.90986">
        <ele>2115.518555</ele>
        <time>2008-04-13T08:15:50Z</time>
      </trkpt>
      <trkpt lat="44.37627" lon="6.90991">
        <ele>2115.999023</ele>
        <time>2008-04-13T08:15:30Z</time>
      </trkpt>
      <trkpt lat="44.3764" lon="6.90999">
        <ele>2115.999023</ele>
        <time>2008-04-13T08:15:08Z</time>
      </trkpt>
      <trkpt lat="44.3765" lon="6.91008">
        <ele>2115.999023</ele>
        <time>2008-04-13T08:14:49Z</time>
      </trkpt>
      <trkpt lat="44.37668" lon="6.91016">
        <ele>2115.999023</ele>
        <time>2008-04-13T08:14:26Z</time>
      </trkpt>
      <trkpt lat="44.3768" lon="6.91025">
        <ele>2115.999023</ele>
        <time>2008-04-13T08:14:04Z</time>
      </trkpt>
      <trkpt lat="44.37691" lon="6.91029">
        <ele>2115.999023</ele>
        <time>2008-04-13T08:13:46Z</time>
      </trkpt>
      <trkpt lat="44.37704" lon="6.91029">
        <ele>2115.999023</ele>
        <time>2008-04-13T08:13:26Z</time>
      </trkpt>
      <trkpt lat="44.37715" lon="6.91029">
        <ele>2115.999023</ele>
        <time>2008-04-13T08:13:07Z</time>
      </trkpt>
      <trkpt lat="44.37723" lon="6.91031">
        <ele>2115.999023</ele>
        <time>2008-04-13T08:12:47Z</time>
      </trkpt>
      <trkpt lat="44.37734" lon="6.91038">
        <ele>2115.999023</ele>
        <time>2008-04-13T08:12:27Z</time>
      </trkpt>
      <trkpt lat="44.37743" lon="6.91046">
        <ele>2115.999023</ele>
        <time>2008-04-13T08:12:04Z</time>
      </trkpt>
      <trkpt lat="44.37756" lon="6.91053">
        <ele>2115.999023</ele>
        <time>2008-04-13T08:11:42Z</time>
      </trkpt>
      <trkpt lat="44.37764" lon="6.91057">
        <ele>2116.479736</ele>
        <time>2008-04-13T08:11:22Z</time>
      </trkpt>
      <trkpt lat="44.37777" lon="6.91061">
        <ele>2114.557129</ele>
        <time>2008-04-13T08:10:59Z</time>
      </trkpt>
      <trkpt lat="44.37788" lon="6.91066">
        <ele>2111.192627</ele>
        <time>2008-04-13T08:10:37Z</time>
      </trkpt>
      <trkpt lat="44.37799" lon="6.91072">
        <ele>2107.827881</ele>
        <time>2008-04-13T08:10:18Z</time>
      </trkpt>
      <trkpt lat="44.37809" lon="6.91077">
        <ele>2105.424561</ele>
        <time>2008-04-13T08:09:56Z</time>
      </trkpt>
      <trkpt lat="44.37818" lon="6.91081">
        <ele>2103.982666</ele>
        <time>2008-04-13T08:09:36Z</time>
      </trkpt>
      <trkpt lat="44.37831" lon="6.91085">
        <ele>2100.137451</ele>
        <time>2008-04-13T08:09:15Z</time>
      </trkpt>
      <trkpt lat="44.37841" lon="6.91089">
        <ele>2095.330811</ele>
        <time>2008-04-13T08:08:50Z</time>
      </trkpt>
      <trkpt lat="44.37854" lon="6.91094">
        <ele>2091.004639</ele>
        <time>2008-04-13T08:08:29Z</time>
      </trkpt>
      <trkpt lat="44.37865" lon="6.91098">
        <ele>2090.523926</ele>
        <time>2008-04-13T08:08:07Z</time>
      </trkpt>
      <trkpt lat="44.3788" lon="6.91102">
        <ele>2089.082031</ele>
        <time>2008-04-13T08:07:44Z</time>
      </trkpt>
      <trkpt lat="44.37895" lon="6.91107">
        <ele>2087.159424</ele>
        <time>2008-04-13T08:07:22Z</time>
      </trkpt>
      <trkpt lat="44.3791" lon="6.91109">
        <ele>2084.756348</ele>
        <time>2008-04-13T08:07:00Z</time>
      </trkpt>
      <trkpt lat="44.37923" lon="6.91113">
        <ele>2081.872314</ele>
        <time>2008-04-13T08:06:40Z</time>
      </trkpt>
      <trkpt lat="44.3794" lon="6.91119">
        <ele>2080.43042</ele>
        <time>2008-04-13T08:06:17Z</time>
      </trkpt>
      <trkpt lat="44.37953" lon="6.91122">
        <ele>2076.585205</ele>
        <time>2008-04-13T08:05:57Z</time>
      </trkpt>
      <trkpt lat="44.37966" lon="6.91126">
        <ele>2070.817139</ele>
        <time>2008-04-13T08:05:36Z</time>
      </trkpt>
      <trkpt lat="44.37974" lon="6.91128">
        <ele>2069.855713</ele>
        <time>2008-04-13T08:05:21Z</time>
      </trkpt>
      <trkpt lat="44.37981" lon="6.91132">
        <ele>2069.855713</ele>
        <time>2008-04-13T08:05:05Z</time>
      </trkpt>
      <trkpt lat="44.37979" lon="6.91132">
        <ele>2069.375244</ele>
        <time>2008-04-13T08:04:36Z</time>
      </trkpt>
      <trkpt lat="44.37979" lon="6.91134">
        <ele>2068.413818</ele>
        <time>2008-04-13T08:04:16Z</time>
      </trkpt>
      <trkpt lat="44.37983" lon="6.91132">
        <ele>2074.662354</ele>
        <time>2008-04-13T08:02:07Z</time>
      </trkpt>
      <trkpt lat="44.37981" lon="6.9113">
        <ele>2078.988281</ele>
        <time>2008-04-13T08:01:47Z</time>
      </trkpt>
      <trkpt lat="44.37985" lon="6.91134">
        <ele>2073.700928</ele>
        <time>2008-04-13T08:01:27Z</time>
      </trkpt>
      <trkpt lat="44.37998" lon="6.91134">
        <ele>2069.855713</ele>
        <time>2008-04-13T08:01:06Z</time>
      </trkpt>
      <trkpt lat="44.38" lon="6.91134">
        <ele>2069.375244</ele>
        <time>2008-04-13T08:00:22Z</time>
      </trkpt>
      <trkpt lat="44.38002" lon="6.91134">
        <ele>2067.933105</ele>
        <time>2008-04-13T08:00:01Z</time>
      </trkpt>
      <trkpt lat="44.38002" lon="6.91134">
        <ele>2068.894531</ele>
        <time>2008-04-13T07:59:23Z</time>
      </trkpt>
      <trkpt lat="44.38009" lon="6.91137">
        <ele>2066.491211</ele>
        <time>2008-04-13T07:59:02Z</time>
      </trkpt>
      <trkpt lat="44.38011" lon="6.91139">
        <ele>2069.375244</ele>
        <time>2008-04-13T07:58:15Z</time>
      </trkpt>
      <trkpt lat="44.38011" lon="6.91139">
        <ele>2066.971924</ele>
        <time>2008-04-13T07:57:56Z</time>
      </trkpt>
      <trkpt lat="44.38015" lon="6.91143">
        <ele>2066.010498</ele>
        <time>2008-04-13T07:57:39Z</time>
      </trkpt>
      <trkpt lat="44.38017" lon="6.91143">
        <ele>2071.77832</ele>
        <time>2008-04-13T07:56:23Z</time>
      </trkpt>
      <trkpt lat="44.38022" lon="6.91145">
        <ele>2068.413818</ele>
        <time>2008-04-13T07:56:06Z</time>
      </trkpt>
      <trkpt lat="44.38037" lon="6.91145">
        <ele>2066.010498</ele>
        <time>2008-04-13T07:55:42Z</time>
      </trkpt>
      <trkpt lat="44.3805" lon="6.91147">
        <ele>2063.126709</ele>
        <time>2008-04-13T07:55:21Z</time>
      </trkpt>
      <trkpt lat="44.38062" lon="6.91154">
        <ele>2059.761719</ele>
        <time>2008-04-13T07:54:59Z</time>
      </trkpt>
      <trkpt lat="44.38075" lon="6.91162">
        <ele>2055.916504</ele>
        <time>2008-04-13T07:54:35Z</time>
      </trkpt>
      <trkpt lat="44.38086" lon="6.91164">
        <ele>2053.513428</ele>
        <time>2008-04-13T07:54:12Z</time>
      </trkpt>
      <trkpt lat="44.38099" lon="6.91173">
        <ele>2044.861572</ele>
        <time>2008-04-13T07:53:45Z</time>
      </trkpt>
      <trkpt lat="44.3811" lon="6.91186">
        <ele>2041.496826</ele>
        <time>2008-04-13T07:53:20Z</time>
      </trkpt>
      <trkpt lat="44.38116" lon="6.91197">
        <ele>2035.729004</ele>
        <time>2008-04-13T07:52:58Z</time>
      </trkpt>
      <trkpt lat="44.38127" lon="6.91205">
        <ele>2030.922607</ele>
        <time>2008-04-13T07:52:34Z</time>
      </trkpt>
      <trkpt lat="44.38142" lon="6.9121">
        <ele>2027.557617</ele>
        <time>2008-04-13T07:52:10Z</time>
      </trkpt>
      <trkpt lat="44.38153" lon="6.91216">
        <ele>2024.673828</ele>
        <time>2008-04-13T07:51:50Z</time>
      </trkpt>
      <trkpt lat="44.38165" lon="6.91218">
        <ele>2020.3479</ele>
        <time>2008-04-13T07:51:25Z</time>
      </trkpt>
      <trkpt lat="44.38178" lon="6.9122">
        <ele>2017.463867</ele>
        <time>2008-04-13T07:51:05Z</time>
      </trkpt>
      <trkpt lat="44.38193" lon="6.91227">
        <ele>2015.060791</ele>
        <time>2008-04-13T07:50:44Z</time>
      </trkpt>
      <trkpt lat="44.38215" lon="6.91233">
        <ele>2014.099365</ele>
        <time>2008-04-13T07:50:20Z</time>
      </trkpt>
      <trkpt lat="44.38221" lon="6.91237">
        <ele>2012.657471</ele>
        <time>2008-04-13T07:50:03Z</time>
      </trkpt>
      <trkpt lat="44.38226" lon="6.91237">
        <ele>2011.696045</ele>
        <time>2008-04-13T07:49:45Z</time>
      </trkpt>
      <trkpt lat="44.38236" lon="6.9124">
        <ele>2008.812012</ele>
        <time>2008-04-13T07:49:26Z</time>
      </trkpt>
      <trkpt lat="44.38249" lon="6.9124">
        <ele>2005.927979</ele>
        <time>2008-04-13T07:49:07Z</time>
      </trkpt>
      <trkpt lat="44.38262" lon="6.91237">
        <ele>2002.082764</ele>
        <time>2008-04-13T07:48:46Z</time>
      </trkpt>
      <trkpt lat="44.38275" lon="6.91233">
        <ele>1999.679688</ele>
        <time>2008-04-13T07:48:26Z</time>
      </trkpt>
      <trkpt lat="44.38288" lon="6.91233">
        <ele>1996.315186</ele>
        <time>2008-04-13T07:48:05Z</time>
      </trkpt>
      <trkpt lat="44.38303" lon="6.91231">
        <ele>1993.911621</ele>
        <time>2008-04-13T07:47:44Z</time>
      </trkpt>
      <trkpt lat="44.3832" lon="6.91229">
        <ele>1992.469727</ele>
        <time>2008-04-13T07:47:22Z</time>
      </trkpt>
      <trkpt lat="44.38335" lon="6.91225">
        <ele>1991.508301</ele>
        <time>2008-04-13T07:47:01Z</time>
      </trkpt>
      <trkpt lat="44.3835" lon="6.91229">
        <ele>1988.624512</ele>
        <time>2008-04-13T07:46:41Z</time>
      </trkpt>
      <trkpt lat="44.38365" lon="6.91227">
        <ele>1985.740479</ele>
        <time>2008-04-13T07:46:20Z</time>
      </trkpt>
      <trkpt lat="44.38378" lon="6.91227">
        <ele>1983.337158</ele>
        <time>2008-04-13T07:45:59Z</time>
      </trkpt>
      <trkpt lat="44.38393" lon="6.91225">
        <ele>1981.895264</ele>
        <time>2008-04-13T07:45:39Z</time>
      </trkpt>
      <trkpt lat="44.38404" lon="6.91225">
        <ele>1980.934082</ele>
        <time>2008-04-13T07:45:21Z</time>
      </trkpt>
      <trkpt lat="44.38414" lon="6.91225">
        <ele>1979.010986</ele>
        <time>2008-04-13T07:45:05Z</time>
      </trkpt>
      <trkpt lat="44.38427" lon="6.91225">
        <ele>1977.088623</ele>
        <time>2008-04-13T07:44:48Z</time>
      </trkpt>
      <trkpt lat="44.3844" lon="6.91227">
        <ele>1974.20459</ele>
        <time>2008-04-13T07:44:27Z</time>
      </trkpt>
      <trkpt lat="44.38455" lon="6.91229">
        <ele>1974.685303</ele>
        <time>2008-04-13T07:44:10Z</time>
      </trkpt>
      <trkpt lat="44.38466" lon="6.91233">
        <ele>1973.243408</ele>
        <time>2008-04-13T07:43:55Z</time>
      </trkpt>
      <trkpt lat="44.38481" lon="6.91237">
        <ele>1971.320557</ele>
        <time>2008-04-13T07:43:36Z</time>
      </trkpt>
      <trkpt lat="44.38492" lon="6.9124">
        <ele>1969.878662</ele>
        <time>2008-04-13T07:43:18Z</time>
      </trkpt>
      <trkpt lat="44.38502" lon="6.91244">
        <ele>1966.994873</ele>
        <time>2008-04-13T07:43:02Z</time>
      </trkpt>
      <trkpt lat="44.38515" lon="6.91246">
        <ele>1965.552979</ele>
        <time>2008-04-13T07:42:44Z</time>
      </trkpt>
      <trkpt lat="44.38526" lon="6.9125">
        <ele>1964.11084</ele>
        <time>2008-04-13T07:42:28Z</time>
      </trkpt>
      <trkpt lat="44.38539" lon="6.91255">
        <ele>1964.11084</ele>
        <time>2008-04-13T07:42:11Z</time>
      </trkpt>
      <trkpt lat="44.38552" lon="6.91259">
        <ele>1961.70752</ele>
        <time>2008-04-13T07:41:55Z</time>
      </trkpt>
      <trkpt lat="44.3856" lon="6.91265">
        <ele>1959.304199</ele>
        <time>2008-04-13T07:41:37Z</time>
      </trkpt>
      <trkpt lat="44.38577" lon="6.9127">
        <ele>1959.304199</ele>
        <time>2008-04-13T07:41:17Z</time>
      </trkpt>
      <trkpt lat="44.38588" lon="6.91278">
        <ele>1958.342773</ele>
        <time>2008-04-13T07:41:02Z</time>
      </trkpt>
      <trkpt lat="44.38605" lon="6.91287">
        <ele>1957.381592</ele>
        <time>2008-04-13T07:40:42Z</time>
      </trkpt>
      <trkpt lat="44.38625" lon="6.91298">
        <ele>1955.939453</ele>
        <time>2008-04-13T07:40:24Z</time>
      </trkpt>
      <trkpt lat="44.3864" lon="6.9131">
        <ele>1956.420166</ele>
        <time>2008-04-13T07:40:05Z</time>
      </trkpt>
      <trkpt lat="44.38661" lon="6.91325">
        <ele>1955.458984</ele>
        <time>2008-04-13T07:39:41Z</time>
      </trkpt>
      <trkpt lat="44.38678" lon="6.91338">
        <ele>1955.939453</ele>
        <time>2008-04-13T07:39:22Z</time>
      </trkpt>
      <trkpt lat="44.38695" lon="6.91353">
        <ele>1955.939453</ele>
        <time>2008-04-13T07:39:00Z</time>
      </trkpt>
      <trkpt lat="44.38702" lon="6.9136">
        <ele>1955.458984</ele>
        <time>2008-04-13T07:38:46Z</time>
      </trkpt>
      <trkpt lat="44.38717" lon="6.91368">
        <ele>1953.536377</ele>
        <time>2008-04-13T07:38:27Z</time>
      </trkpt>
      <trkpt lat="44.3873" lon="6.91377">
        <ele>1953.055664</ele>
        <time>2008-04-13T07:38:12Z</time>
      </trkpt>
      <trkpt lat="44.38743" lon="6.91386">
        <ele>1952.574951</ele>
        <time>2008-04-13T07:37:56Z</time>
      </trkpt>
      <trkpt lat="44.38749" lon="6.91392">
        <ele>1950.171875</ele>
        <time>2008-04-13T07:37:38Z</time>
      </trkpt>
      <trkpt lat="44.38745" lon="6.91394">
        <ele>1953.055664</ele>
        <time>2008-04-13T07:36:10Z</time>
      </trkpt>
      <trkpt lat="44.38745" lon="6.91394">
        <ele>1952.574951</ele>
        <time>2008-04-13T07:35:56Z</time>
      </trkpt>
      <trkpt lat="44.38745" lon="6.91396">
        <ele>1952.094238</ele>
        <time>2008-04-13T07:35:24Z</time>
      </trkpt>
      <trkpt lat="44.38747" lon="6.91394">
        <ele>1950.652344</ele>
        <time>2008-04-13T07:34:47Z</time>
      </trkpt>
      <trkpt lat="44.38749" lon="6.91396">
        <ele>1949.210449</ele>
        <time>2008-04-13T07:34:33Z</time>
      </trkpt>
      <trkpt lat="44.38762" lon="6.91418">
        <ele>1945.36499</ele>
        <time>2008-04-13T07:34:10Z</time>
      </trkpt>
      <trkpt lat="44.38773" lon="6.91424">
        <ele>1943.442383</ele>
        <time>2008-04-13T07:33:55Z</time>
      </trkpt>
      <trkpt lat="44.38781" lon="6.91431">
        <ele>1941.519775</ele>
        <time>2008-04-13T07:32:43Z</time>
      </trkpt>
      <trkpt lat="44.38781" lon="6.91428">
        <ele>1942.481201</ele>
        <time>2008-04-13T07:32:15Z</time>
      </trkpt>
      <trkpt lat="44.38794" lon="6.91437">
        <ele>1942.000488</ele>
        <time>2008-04-13T07:31:54Z</time>
      </trkpt>
      <trkpt lat="44.38811" lon="6.91443">
        <ele>1939.597168</ele>
        <time>2008-04-13T07:31:33Z</time>
      </trkpt>
      <trkpt lat="44.38831" lon="6.91452">
        <ele>1937.193848</ele>
        <time>2008-04-13T07:31:09Z</time>
      </trkpt>
      <trkpt lat="44.38846" lon="6.91458">
        <ele>1936.232666</ele>
        <time>2008-04-13T07:30:48Z</time>
      </trkpt>
      <trkpt lat="44.38865" lon="6.91463">
        <ele>1933.829346</ele>
        <time>2008-04-13T07:30:26Z</time>
      </trkpt>
      <trkpt lat="44.3888" lon="6.91469">
        <ele>1931.906494</ele>
        <time>2008-04-13T07:30:07Z</time>
      </trkpt>
      <trkpt lat="44.38897" lon="6.91478">
        <ele>1929.983887</ele>
        <time>2008-04-13T07:29:46Z</time>
      </trkpt>
      <trkpt lat="44.38912" lon="6.91484">
        <ele>1927.580566</ele>
        <time>2008-04-13T07:29:28Z</time>
      </trkpt>
      <trkpt lat="44.38929" lon="6.91497">
        <ele>1924.696777</ele>
        <time>2008-04-13T07:29:06Z</time>
      </trkpt>
      <trkpt lat="44.38944" lon="6.91508">
        <ele>1919.890137</ele>
        <time>2008-04-13T07:28:47Z</time>
      </trkpt>
      <trkpt lat="44.38953" lon="6.91512">
        <ele>1910.276855</ele>
        <time>2008-04-13T07:28:29Z</time>
      </trkpt>
      <trkpt lat="44.38962" lon="6.91516">
        <ele>1904.509033</ele>
        <time>2008-04-13T07:28:15Z</time>
      </trkpt>
      <trkpt lat="44.38966" lon="6.91525">
        <ele>1904.509033</ele>
        <time>2008-04-13T07:28:00Z</time>
      </trkpt>
      <trkpt lat="44.38972" lon="6.91531">
        <ele>1904.509033</ele>
        <time>2008-04-13T07:27:41Z</time>
      </trkpt>
      <trkpt lat="44.38974" lon="6.91531">
        <ele>1904.509033</ele>
        <time>2008-04-13T07:27:21Z</time>
      </trkpt>
      <trkpt lat="44.38974" lon="6.91531">
        <ele>1904.509033</ele>
        <time>2008-04-13T07:27:10Z</time>
      </trkpt>
      <trkpt lat="44.38979" lon="6.91531">
        <ele>1904.509033</ele>
        <time>2008-04-13T07:26:57Z</time>
      </trkpt>
      <trkpt lat="44.38983" lon="6.91531">
        <ele>1904.509033</ele>
        <time>2008-04-13T07:26:36Z</time>
      </trkpt>
      <trkpt lat="44.38987" lon="6.91536">
        <ele>1904.509033</ele>
        <time>2008-04-13T07:26:21Z</time>
      </trkpt>
      <trkpt lat="44.38989" lon="6.91538">
        <ele>1904.509033</ele>
        <time>2008-04-13T07:26:09Z</time>
      </trkpt>
      <trkpt lat="44.38996" lon="6.91536">
        <ele>1904.509033</ele>
        <time>2008-04-13T07:25:56Z</time>
      </trkpt>
      <trkpt lat="44.39007" lon="6.91538">
        <ele>1904.509033</ele>
        <time>2008-04-13T07:25:38Z</time>
      </trkpt>
      <trkpt lat="44.39022" lon="6.91551">
        <ele>1904.509033</ele>
        <time>2008-04-13T07:25:16Z</time>
      </trkpt>
      <trkpt lat="44.39034" lon="6.91566">
        <ele>1904.509033</ele>
        <time>2008-04-13T07:24:55Z</time>
      </trkpt>
      <trkpt lat="44.39043" lon="6.91574">
        <ele>1904.509033</ele>
        <time>2008-04-13T07:24:39Z</time>
      </trkpt>
      <trkpt lat="44.39056" lon="6.91587">
        <ele>1904.509033</ele>
        <time>2008-04-13T07:24:19Z</time>
      </trkpt>
      <trkpt lat="44.3906" lon="6.91592">
        <ele>1904.509033</ele>
        <time>2008-04-13T07:24:12Z</time>
      </trkpt>
      <trkpt lat="44.39075" lon="6.91602">
        <ele>1904.509033</ele>
        <time>2008-04-13T07:23:53Z</time>
      </trkpt>
      <trkpt lat="44.3909" lon="6.91611">
        <ele>1904.509033</ele>
        <time>2008-04-13T07:23:33Z</time>
      </trkpt>
      <trkpt lat="44.39105" lon="6.91619">
        <ele>1904.509033</ele>
        <time>2008-04-13T07:23:13Z</time>
      </trkpt>
      <trkpt lat="44.39116" lon="6.91624">
        <ele>1904.509033</ele>
        <time>2008-04-13T07:22:55Z</time>
      </trkpt>
      <trkpt lat="44.39127" lon="6.91628">
        <ele>1904.509033</ele>
        <time>2008-04-13T07:22:39Z</time>
      </trkpt>
      <trkpt lat="44.39142" lon="6.9163">
        <ele>1904.509033</ele>
        <time>2008-04-13T07:22:19Z</time>
      </trkpt>
      <trkpt lat="44.39157" lon="6.91632">
        <ele>1904.509033</ele>
        <time>2008-04-13T07:22:00Z</time>
      </trkpt>
      <trkpt lat="44.39172" lon="6.91637">
        <ele>1904.028564</ele>
        <time>2008-04-13T07:21:41Z</time>
      </trkpt>
      <trkpt lat="44.39185" lon="6.91639">
        <ele>1904.028564</ele>
        <time>2008-04-13T07:21:25Z</time>
      </trkpt>
      <trkpt lat="44.39198" lon="6.91641">
        <ele>1903.547852</ele>
        <time>2008-04-13T07:21:07Z</time>
      </trkpt>
      <trkpt lat="44.3921" lon="6.91645">
        <ele>1903.067139</ele>
        <time>2008-04-13T07:20:47Z</time>
      </trkpt>
      <trkpt lat="44.39225" lon="6.91649">
        <ele>1902.105713</ele>
        <time>2008-04-13T07:20:27Z</time>
      </trkpt>
      <trkpt lat="44.39238" lon="6.91656">
        <ele>1901.144531</ele>
        <time>2008-04-13T07:20:09Z</time>
      </trkpt>
      <trkpt lat="44.39251" lon="6.91664">
        <ele>1900.663818</ele>
        <time>2008-04-13T07:19:51Z</time>
      </trkpt>
      <trkpt lat="44.39266" lon="6.91673">
        <ele>1899.22168</ele>
        <time>2008-04-13T07:19:32Z</time>
      </trkpt>
      <trkpt lat="44.39279" lon="6.9169">
        <ele>1898.260254</ele>
        <time>2008-04-13T07:19:11Z</time>
      </trkpt>
      <trkpt lat="44.39288" lon="6.91705">
        <ele>1896.818359</ele>
        <time>2008-04-13T07:18:52Z</time>
      </trkpt>
      <trkpt lat="44.39301" lon="6.91716">
        <ele>1895.857178</ele>
        <time>2008-04-13T07:18:32Z</time>
      </trkpt>
      <trkpt lat="44.39313" lon="6.91716">
        <ele>1895.376465</ele>
        <time>2008-04-13T07:18:15Z</time>
      </trkpt>
      <trkpt lat="44.39324" lon="6.91716">
        <ele>1893.93457</ele>
        <time>2008-04-13T07:17:58Z</time>
      </trkpt>
      <trkpt lat="44.39335" lon="6.91727">
        <ele>1892.492676</ele>
        <time>2008-04-13T07:17:39Z</time>
      </trkpt>
      <trkpt lat="44.39346" lon="6.91737">
        <ele>1892.011963</ele>
        <time>2008-04-13T07:17:22Z</time>
      </trkpt>
      <trkpt lat="44.39356" lon="6.91742">
        <ele>1891.050537</ele>
        <time>2008-04-13T07:17:05Z</time>
      </trkpt>
      <trkpt lat="44.39365" lon="6.91746">
        <ele>1890.089355</ele>
        <time>2008-04-13T07:16:50Z</time>
      </trkpt>
      <trkpt lat="44.39371" lon="6.91752">
        <ele>1890.089355</ele>
        <time>2008-04-13T07:16:35Z</time>
      </trkpt>
      <trkpt lat="44.39382" lon="6.91755">
        <ele>1889.12793</ele>
        <time>2008-04-13T07:16:19Z</time>
      </trkpt>
      <trkpt lat="44.39393" lon="6.91759">
        <ele>1888.166748</ele>
        <time>2008-04-13T07:16:03Z</time>
      </trkpt>
      <trkpt lat="44.39401" lon="6.91767">
        <ele>1888.166748</ele>
        <time>2008-04-13T07:15:48Z</time>
      </trkpt>
      <trkpt lat="44.39412" lon="6.91778">
        <ele>1888.166748</ele>
        <time>2008-04-13T07:15:30Z</time>
      </trkpt>
      <trkpt lat="44.39419" lon="6.91789">
        <ele>1885.763428</ele>
        <time>2008-04-13T07:15:13Z</time>
      </trkpt>
      <trkpt lat="44.39425" lon="6.91797">
        <ele>1884.802246</ele>
        <time>2008-04-13T07:14:57Z</time>
      </trkpt>
      <trkpt lat="44.39431" lon="6.91806">
        <ele>1884.802246</ele>
        <time>2008-04-13T07:14:41Z</time>
      </trkpt>
      <trkpt lat="44.39442" lon="6.91813">
        <ele>1883.359863</ele>
        <time>2008-04-13T07:14:24Z</time>
      </trkpt>
      <trkpt lat="44.39453" lon="6.91819">
        <ele>1880.956787</ele>
        <time>2008-04-13T07:14:07Z</time>
      </trkpt>
      <trkpt lat="44.39457" lon="6.91823">
        <ele>1879.033936</ele>
        <time>2008-04-13T07:13:54Z</time>
      </trkpt>
      <trkpt lat="44.39466" lon="6.91828">
        <ele>1876.630859</ele>
        <time>2008-04-13T07:13:38Z</time>
      </trkpt>
      <trkpt lat="44.3947" lon="6.91836">
        <ele>1875.188721</ele>
        <time>2008-04-13T07:13:22Z</time>
      </trkpt>
      <trkpt lat="44.39476" lon="6.91845">
        <ele>1874.708252</ele>
        <time>2008-04-13T07:13:07Z</time>
      </trkpt>
      <trkpt lat="44.39483" lon="6.91853">
        <ele>1873.746826</ele>
        <time>2008-04-13T07:12:50Z</time>
      </trkpt>
      <trkpt lat="44.39489" lon="6.91862">
        <ele>1873.266357</ele>
        <time>2008-04-13T07:12:34Z</time>
      </trkpt>
      <trkpt lat="44.39496" lon="6.9187">
        <ele>1872.304932</ele>
        <time>2008-04-13T07:12:19Z</time>
      </trkpt>
      <trkpt lat="44.395" lon="6.91879">
        <ele>1871.343506</ele>
        <time>2008-04-13T07:12:03Z</time>
      </trkpt>
      <trkpt lat="44.39507" lon="6.91885">
        <ele>1871.824219</ele>
        <time>2008-04-13T07:11:48Z</time>
      </trkpt>
      <trkpt lat="44.39513" lon="6.9189">
        <ele>1867.017578</ele>
        <time>2008-04-13T07:11:33Z</time>
      </trkpt>
      <trkpt lat="44.39522" lon="6.919">
        <ele>1867.498047</ele>
        <time>2008-04-13T07:11:16Z</time>
      </trkpt>
      <trkpt lat="44.3953" lon="6.91909">
        <ele>1867.017578</ele>
        <time>2008-04-13T07:11:00Z</time>
      </trkpt>
      <trkpt lat="44.39534" lon="6.9192">
        <ele>1869.901611</ele>
        <time>2008-04-13T07:10:38Z</time>
      </trkpt>
      <trkpt lat="44.39534" lon="6.91907">
        <ele>1845.868652</ele>
        <time>2008-04-13T07:09:22Z</time>
      </trkpt>
      <trkpt lat="44.39537" lon="6.91898">
        <ele>1830.487549</ele>
        <time>2008-04-13T07:08:48Z</time>
      </trkpt>
      <trkpt lat="44.39537" lon="6.91896">
        <ele>1821.835693</ele>
        <time>2008-04-13T07:08:27Z</time>
      </trkpt>
      <trkpt lat="44.39547" lon="6.91907">
        <ele>1817.509521</ele>
        <time>2008-04-13T07:08:07Z</time>
      </trkpt>
      <trkpt lat="44.39556" lon="6.91913">
        <ele>1807.896729</ele>
        <time>2008-04-13T07:07:48Z</time>
      </trkpt>
      <trkpt lat="44.39567" lon="6.91918">
        <ele>1798.763916</ele>
        <time>2008-04-13T07:07:29Z</time>
      </trkpt>
      <trkpt lat="44.39577" lon="6.91928">
        <ele>1798.763916</ele>
        <time>2008-04-13T07:07:08Z</time>
      </trkpt>
      <trkpt lat="44.39586" lon="6.91935">
        <ele>1798.763916</ele>
        <time>2008-04-13T07:06:49Z</time>
      </trkpt>
      <trkpt lat="44.39597" lon="6.91943">
        <ele>1798.763916</ele>
        <time>2008-04-13T07:06:31Z</time>
      </trkpt>
      <trkpt lat="44.39599" lon="6.91956">
        <ele>1797.802734</ele>
        <time>2008-04-13T07:06:13Z</time>
      </trkpt>
      <trkpt lat="44.39603" lon="6.91971">
        <ele>1797.802734</ele>
        <time>2008-04-13T07:05:56Z</time>
      </trkpt>
      <trkpt lat="44.39614" lon="6.91982">
        <ele>1797.802734</ele>
        <time>2008-04-13T07:05:37Z</time>
      </trkpt>
      <trkpt lat="44.39625" lon="6.91997">
        <ele>1797.802734</ele>
        <time>2008-04-13T07:05:16Z</time>
      </trkpt>
      <trkpt lat="44.39637" lon="6.92012">
        <ele>1797.802734</ele>
        <time>2008-04-13T07:04:57Z</time>
      </trkpt>
      <trkpt lat="44.39646" lon="6.92023">
        <ele>1797.802734</ele>
        <time>2008-04-13T07:04:39Z</time>
      </trkpt>
      <trkpt lat="44.39657" lon="6.92031">
        <ele>1797.802734</ele>
        <time>2008-04-13T07:04:21Z</time>
      </trkpt>
      <trkpt lat="44.39667" lon="6.9204">
        <ele>1797.802734</ele>
        <time>2008-04-13T07:04:04Z</time>
      </trkpt>
      <trkpt lat="44.39676" lon="6.92049">
        <ele>1797.802734</ele>
        <time>2008-04-13T07:03:47Z</time>
      </trkpt>
      <trkpt lat="44.39685" lon="6.92059">
        <ele>1797.802734</ele>
        <time>2008-04-13T07:03:28Z</time>
      </trkpt>
      <trkpt lat="44.39693" lon="6.9207">
        <ele>1797.802734</ele>
        <time>2008-04-13T07:03:10Z</time>
      </trkpt>
      <trkpt lat="44.397" lon="6.92081">
        <ele>1797.802734</ele>
        <time>2008-04-13T07:02:54Z</time>
      </trkpt>
      <trkpt lat="44.39708" lon="6.92094">
        <ele>1797.802734</ele>
        <time>2008-04-13T07:02:34Z</time>
      </trkpt>
      <trkpt lat="44.39719" lon="6.92111">
        <ele>1797.802734</ele>
        <time>2008-04-13T07:02:14Z</time>
      </trkpt>
      <trkpt lat="44.39721" lon="6.92115">
        <ele>1797.802734</ele>
        <time>2008-04-13T07:02:10Z</time>
      </trkpt>
      <trkpt lat="44.39732" lon="6.9213">
        <ele>1797.322021</ele>
        <time>2008-04-13T07:01:51Z</time>
      </trkpt>
      <trkpt lat="44.39736" lon="6.92143">
        <ele>1795.399414</ele>
        <time>2008-04-13T07:01:33Z</time>
      </trkpt>
      <trkpt lat="44.3974" lon="6.92152">
        <ele>1793.476807</ele>
        <time>2008-04-13T07:01:17Z</time>
      </trkpt>
      <trkpt lat="44.39745" lon="6.92164">
        <ele>1792.034912</ele>
        <time>2008-04-13T07:01:00Z</time>
      </trkpt>
      <trkpt lat="44.39747" lon="6.92182">
        <ele>1792.515625</ele>
        <time>2008-04-13T07:00:43Z</time>
      </trkpt>
      <trkpt lat="44.39749" lon="6.92197">
        <ele>1788.67041</ele>
        <time>2008-04-13T07:00:25Z</time>
      </trkpt>
      <trkpt lat="44.39749" lon="6.92216">
        <ele>1785.30542</ele>
        <time>2008-04-13T07:00:04Z</time>
      </trkpt>
      <trkpt lat="44.39751" lon="6.92233">
        <ele>1784.824951</ele>
        <time>2008-04-13T06:59:47Z</time>
      </trkpt>
      <trkpt lat="44.39753" lon="6.9225">
        <ele>1782.421631</ele>
        <time>2008-04-13T06:59:29Z</time>
      </trkpt>
      <trkpt lat="44.39758" lon="6.92265">
        <ele>1779.537598</ele>
        <time>2008-04-13T06:59:12Z</time>
      </trkpt>
      <trkpt lat="44.3976" lon="6.92282">
        <ele>1778.095703</ele>
        <time>2008-04-13T06:58:55Z</time>
      </trkpt>
      <trkpt lat="44.39764" lon="6.923">
        <ele>1776.173096</ele>
        <time>2008-04-13T06:58:37Z</time>
      </trkpt>
      <trkpt lat="44.39768" lon="6.92317">
        <ele>1774.250488</ele>
        <time>2008-04-13T06:58:19Z</time>
      </trkpt>
      <trkpt lat="44.39773" lon="6.92334">
        <ele>1772.327881</ele>
        <time>2008-04-13T06:58:01Z</time>
      </trkpt>
      <trkpt lat="44.39777" lon="6.92349">
        <ele>1772.327881</ele>
        <time>2008-04-13T06:57:45Z</time>
      </trkpt>
      <trkpt lat="44.39781" lon="6.92362">
        <ele>1770.405029</ele>
        <time>2008-04-13T06:57:29Z</time>
      </trkpt>
      <trkpt lat="44.39785" lon="6.92375">
        <ele>1769.924316</ele>
        <time>2008-04-13T06:57:14Z</time>
      </trkpt>
      <trkpt lat="44.39788" lon="6.92388">
        <ele>1768.963135</ele>
        <time>2008-04-13T06:57:00Z</time>
      </trkpt>
      <trkpt lat="44.39794" lon="6.92403">
        <ele>1767.520996</ele>
        <time>2008-04-13T06:56:43Z</time>
      </trkpt>
      <trkpt lat="44.39798" lon="6.9242">
        <ele>1766.559814</ele>
        <time>2008-04-13T06:56:24Z</time>
      </trkpt>
      <trkpt lat="44.39803" lon="6.92435">
        <ele>1766.079102</ele>
        <time>2008-04-13T06:56:07Z</time>
      </trkpt>
      <trkpt lat="44.39807" lon="6.9245">
        <ele>1767.040527</ele>
        <time>2008-04-13T06:55:50Z</time>
      </trkpt>
      <trkpt lat="44.39811" lon="6.92458">
        <ele>1767.520996</ele>
        <time>2008-04-13T06:55:35Z</time>
      </trkpt>
      <trkpt lat="44.39818" lon="6.92469">
        <ele>1768.482422</ele>
        <time>2008-04-13T06:55:18Z</time>
      </trkpt>
      <trkpt lat="44.3982" lon="6.92471">
        <ele>1765.598633</ele>
        <time>2008-04-13T06:54:57Z</time>
      </trkpt>
      <trkpt lat="44.39818" lon="6.92467">
        <ele>1762.7146</ele>
        <time>2008-04-13T06:54:04Z</time>
      </trkpt>
      <trkpt lat="44.3982" lon="6.92471">
        <ele>1763.195313</ele>
        <time>2008-04-13T06:53:50Z</time>
      </trkpt>
      <trkpt lat="44.39824" lon="6.92473">
        <ele>1762.7146</ele>
        <time>2008-04-13T06:51:09Z</time>
      </trkpt>
      <trkpt lat="44.39824" lon="6.92476">
        <ele>1766.079102</ele>
        <time>2008-04-13T06:50:25Z</time>
      </trkpt>
      <trkpt lat="44.39828" lon="6.92469">
        <ele>1765.11792</ele>
        <time>2008-04-13T06:50:07Z</time>
      </trkpt>
      <trkpt lat="44.39835" lon="6.92467">
        <ele>1765.598633</ele>
        <time>2008-04-13T06:49:46Z</time>
      </trkpt>
      <trkpt lat="44.39837" lon="6.92469">
        <ele>1764.156494</ele>
        <time>2008-04-13T06:49:25Z</time>
      </trkpt>
      <trkpt lat="44.39846" lon="6.92473">
        <ele>1764.156494</ele>
        <time>2008-04-13T06:49:11Z</time>
      </trkpt>
      <trkpt lat="44.3985" lon="6.92482">
        <ele>1764.637207</ele>
        <time>2008-04-13T06:49:01Z</time>
      </trkpt>
      <trkpt lat="44.39852" lon="6.92484">
        <ele>1764.156494</ele>
        <time>2008-04-13T06:48:59Z</time>
      </trkpt>
      <trkpt lat="44.3985" lon="6.92506">
        <ele>1760.791992</ele>
        <time>2008-04-13T06:48:41Z</time>
      </trkpt>
      <trkpt lat="44.3985" lon="6.92512">
        <ele>1760.311279</ele>
        <time>2008-04-13T06:48:34Z</time>
      </trkpt>
      <trkpt lat="44.39848" lon="6.92525">
        <ele>1759.350098</ele>
        <time>2008-04-13T06:48:18Z</time>
      </trkpt>
      <trkpt lat="44.39854" lon="6.92542">
        <ele>1762.233887</ele>
        <time>2008-04-13T06:48:03Z</time>
      </trkpt>
      <trkpt lat="44.39858" lon="6.92549">
        <ele>1757.908203</ele>
        <time>2008-04-13T06:47:43Z</time>
      </trkpt>
      <trkpt lat="44.39869" lon="6.92561">
        <ele>1762.7146</ele>
        <time>2008-04-13T06:47:26Z</time>
      </trkpt>
      <trkpt lat="44.3988" lon="6.92572">
        <ele>1764.637207</ele>
        <time>2008-04-13T06:47:12Z</time>
      </trkpt>
      <trkpt lat="44.3988" lon="6.92585">
        <ele>1767.040527</ele>
        <time>2008-04-13T06:47:02Z</time>
      </trkpt>
      <trkpt lat="44.39871" lon="6.92613">
        <ele>1774.250488</ele>
        <time>2008-04-13T06:46:43Z</time>
      </trkpt>
      <trkpt lat="44.39871" lon="6.92624">
        <ele>1775.692383</ele>
        <time>2008-04-13T06:46:36Z</time>
      </trkpt>
      <trkpt lat="44.39861" lon="6.92636">
        <ele>1779.056885</ele>
        <time>2008-04-13T06:46:18Z</time>
      </trkpt>
      <trkpt lat="44.39863" lon="6.92656">
        <ele>1784.344238</ele>
        <time>2008-04-13T06:45:53Z</time>
      </trkpt>
      <trkpt lat="44.39873" lon="6.92649">
        <ele>1761.753418</ele>
        <time>2008-04-13T06:45:14Z</time>
      </trkpt>
      <trkpt lat="44.39876" lon="6.92656">
        <ele>1762.7146</ele>
        <time>2008-04-13T06:45:01Z</time>
      </trkpt>
      <trkpt lat="44.3988" lon="6.92677">
        <ele>1762.233887</ele>
        <time>2008-04-13T06:44:41Z</time>
      </trkpt>
      <trkpt lat="44.39873" lon="6.92714">
        <ele>1761.753418</ele>
        <time>2008-04-13T06:44:16Z</time>
      </trkpt>
      <trkpt lat="44.39867" lon="6.92722">
        <ele>1761.753418</ele>
        <time>2008-04-13T06:44:04Z</time>
      </trkpt>
      <trkpt lat="44.39869" lon="6.92722">
        <ele>1761.272705</ele>
        <time>2008-04-13T06:43:55Z</time>
      </trkpt>
    </trkseg>
  </trk>
</gpx>